M I D A S
Marine Information and Data Acquisition System
Tripno 1850 of the Zeeleeuw from 2010-03-30 06:50:56 to 2010-03-30 15:46:48
Back to CruiseResearch ActivitiesStationsMapUnderway DataData graphs

EquipmentUnitsComment
TimeDGPSUTC
LatitudeDGPSDM.mWGS84
LongitudeDGPSDM.mWGS84
TemperatureSBE03/SBE38deg celciusITS90
ConductivitySBE21S/mITS90
SalinitySBE21 Practical Salinity Units
ChlorophylAChelsea fluorimeterg/lCalibrated in Aceton
Missing or incorrect values are displayed as -999
Sea surface data collected by the RV Zeeleeuw from 2010-03-30 06:47:28 to 2010-03-30 16:28:13
                                                                                    Next 1000 lines
Time Latitude Longitude Temperature Conductivity Salinity ChlorophylA
2010-03-30 06:47:38 51°13.662 2°55.956 16.2503 2.215014 14.90782 -1.348809
2010-03-30 06:47:43 51°13.663 2°55.953 16.2991 2.215014 14.90782 -1.348809
2010-03-30 06:47:48 51°13.664 2°55.949 16.2997 2.215117 14.90858 -1.313985
2010-03-30 06:47:52 51°13.666 2°55.946 16.2774 2.215117 14.908308 -1.348809
2010-03-30 06:47:57 51°13.667 2°55.94 16.2833 2.215014 14.90782 -1.348809
2010-03-30 06:48:03 51°13.67 2°55.933 16.2691 2.215014 14.907548 -1.348809
2010-03-30 06:48:08 51°13.671 2°55.927 16.3739 2.214911 14.90706 -1.348809
2010-03-30 06:48:13 51°13.674 2°55.92 16.3496 2.214911 14.90706 -1.348809
2010-03-30 06:48:17 51°13.675 2°55.914 16.3472 2.214911 14.90706 -1.313985
2010-03-30 06:48:23 51°13.678 2°55.905 16.3527 2.214911 14.907332 -1.313985
2010-03-30 06:48:28 51°13.681 2°55.897 16.3703 2.214807 14.906844 -1.348809
2010-03-30 06:48:33 51°13.683 2°55.889 16.3943 2.214911 14.908147 -1.348809
2010-03-30 06:48:38 51°13.685 2°55.881 16.3882 2.214807 14.907387 -1.348809
2010-03-30 06:48:43 51°13.687 2°55.874 16.368 2.214807 14.907387 -1.348809
2010-03-30 06:48:48 51°13.688 2°55.866 16.3599 2.214807 14.907931 -1.313985
2010-03-30 06:48:53 51°13.69 2°55.857 16.359 2.214807 14.907931 -1.348809
2010-03-30 06:48:57 51°13.691 2°55.851 16.3598 2.214807 14.908203 -1.348809
2010-03-30 06:49:03 51°13.692 2°55.841 16.3617 2.214807 14.908203 -1.313985
2010-03-30 06:49:08 51°13.693 2°55.833 16.3604 2.214704 14.907443 -1.348809
2010-03-30 06:49:13 51°13.694 2°55.825 16.3579 2.214704 14.907443 -1.348809
2010-03-30 06:49:18 51°13.694 2°55.816 16.3574 2.214704 14.907443 -1.348809
2010-03-30 06:49:23 51°13.695 2°55.807 16.3595 2.214704 14.907443 -1.348809
2010-03-30 06:49:28 51°13.695 2°55.798 16.3591 2.214704 14.907715 -1.348809
2010-03-30 06:49:33 51°13.695 2°55.79 16.364 2.214601 14.907226 -1.348809
2010-03-30 06:49:38 51°13.695 2°55.781 16.3661 2.214601 14.907498 -1.313985
2010-03-30 06:49:43 51°13.695 2°55.772 16.3705 2.214601 14.907498 -1.313985
2010-03-30 06:49:48 51°13.695 2°55.764 16.3658 2.214601 14.90777 -1.348809
2010-03-30 06:49:53 51°13.694 2°55.756 16.3659 2.214601 14.90777 -1.348809
2010-03-30 06:49:57 51°13.694 2°55.75 16.3795 2.214497 14.907282 -1.313985
2010-03-30 06:50:02 51°13.693 2°55.743 16.3853 2.214394 14.906794 -1.348809
2010-03-30 06:50:07 51°13.692 2°55.737 16.3953 2.214497 14.907825 -1.348809
2010-03-30 06:50:12 51°13.692 2°55.732 16.4098 2.214497 14.907825 -1.348809
2010-03-30 06:50:17 51°13.692 2°55.73 16.4276 2.214394 14.907609 -1.348809
2010-03-30 06:50:21 51°13.692 2°55.729 16.4261 2.214601 14.909401 -1.313985
2010-03-30 06:50:26 51°13.692 2°55.728 16.4243 2.214291 14.907121 -1.348809
2010-03-30 06:50:31 51°13.693 2°55.728 16.4241 2.214394 14.907881 -1.348809
2010-03-30 06:50:36 51°13.695 2°55.729 16.424 2.214394 14.907881 -1.348809
2010-03-30 06:50:41 51°13.696 2°55.729 16.4232 2.214394 14.907881 -1.348809
2010-03-30 06:50:45 51°13.697 2°55.73 16.4205 2.214394 14.907881 -1.348809
2010-03-30 06:50:50 51°13.7 2°55.731 16.4196 2.214291 14.907121 -1.348809
2010-03-30 06:50:55 51°13.702 2°55.731 16.4203 2.214291 14.907393 -1.348809
2010-03-30 06:51:00 51°13.705 2°55.731 16.4207 2.214187 14.906905 -1.313985
2010-03-30 06:51:05 51°13.709 2°55.731 16.4431 2.214291 14.907936 -1.348809
2010-03-30 06:51:09 51°13.711 2°55.731 16.4462 2.214291 14.907936 -1.348809
2010-03-30 06:51:14 51°13.715 2°55.73 16.4386 2.214394 14.908968 -1.348809
2010-03-30 06:51:19 51°13.719 2°55.728 16.4262 2.214291 14.907936 -1.348809
2010-03-30 06:51:24 51°13.724 2°55.725 16.396 2.214187 14.906905 -1.348809
2010-03-30 06:51:29 51°13.728 2°55.722 16.3872 2.214187 14.906633 -1.348809
2010-03-30 06:51:34 51°13.733 2°55.718 16.3372 2.214084 14.905601 -1.348809
2010-03-30 06:51:39 51°13.738 2°55.713 16.3198 2.214084 14.905601 -1.348809
2010-03-30 06:51:44 51°13.744 2°55.709 16.3218 2.214084 14.905329 -1.313985
2010-03-30 06:51:49 51°13.749 2°55.704 16.3129 2.214084 14.905329 -1.348809
2010-03-30 06:51:54 51°13.755 2°55.698 16.2988 2.214084 14.905329 -1.348809
2010-03-30 06:51:59 51°13.761 2°55.692 16.2805 2.213981 14.904569 -1.348809
2010-03-30 06:52:04 51°13.768 2°55.686 16.2662 2.213981 14.904841 -1.348809
2010-03-30 06:52:09 51°13.775 2°55.679 16.2151 2.213981 14.904841 -1.348809
2010-03-30 06:52:14 51°13.783 2°55.673 16.1326 2.213981 14.904841 -1.348809
2010-03-30 06:52:19 51°13.79 2°55.667 16.0569 2.213981 14.904841 -1.348809
2010-03-30 06:52:24 51°13.798 2°55.66 16.0401 2.213877 14.904081 -1.348809
2010-03-30 06:52:29 51°13.806 2°55.654 16.0512 2.213981 14.904841 -1.348809
2010-03-30 06:52:34 51°13.814 2°55.648 16.0562 2.213981 14.904298 -1.348809
2010-03-30 06:52:39 51°13.821 2°55.643 15.9773 2.213981 14.904298 -1.348809
2010-03-30 06:52:44 51°13.829 2°55.638 15.9897 2.213774 14.902506 -1.348809
2010-03-30 06:52:49 51°13.837 2°55.635 15.9643 2.213877 14.903266 -1.348809
2010-03-30 06:52:54 51°13.845 2°55.632 15.9469 2.213464 14.90077 -1.348809
2010-03-30 06:52:59 51°13.853 2°55.631 16.1895 2.213567 14.902617 -1.348809
2010-03-30 06:53:04 51°13.861 2°55.631 16.1776 2.213567 14.903432 -1.348809
2010-03-30 06:53:09 51°13.869 2°55.63 16.2984 2.213567 14.903432 -1.348809
2010-03-30 06:53:14 51°13.877 2°55.63 16.2858 2.213568 14.904247 -1.348809
2010-03-30 06:53:19 51°13.884 2°55.629 16.2937 2.213671 14.905551 -1.348809
2010-03-30 06:53:24 51°13.892 2°55.628 16.2993 2.213671 14.905551 -1.348809
2010-03-30 06:53:29 51°13.899 2°55.626 16.2997 2.213568 14.904791 -1.348809
2010-03-30 06:53:34 51°13.907 2°55.624 16.3278 2.213568 14.904791 -1.348809
2010-03-30 06:53:39 51°13.914 2°55.622 16.3522 2.213568 14.904791 -1.348809
2010-03-30 06:53:44 51°13.922 2°55.62 16.3795 2.213464 14.904574 -1.348809
2010-03-30 06:53:49 51°13.93 2°55.618 16.3699 2.213464 14.904846 -1.313985
2010-03-30 06:53:53 51°13.936 2°55.615 16.3788 2.213464 14.90539 -1.348809
2010-03-30 06:53:59 51°13.945 2°55.611 16.3752 2.213464 14.905934 -1.348809
2010-03-30 06:54:04 51°13.953 2°55.606 16.3717 2.213464 14.905934 -1.348809
2010-03-30 06:54:09 51°13.961 2°55.601 16.3429 2.213464 14.905934 -1.348809
2010-03-30 06:54:14 51°13.969 2°55.596 16.3474 2.213361 14.904902 -1.348809
2010-03-30 06:54:20 51°13.979 2°55.589 16.3534 2.213361 14.905174 -1.348809
2010-03-30 06:54:24 51°13.986 2°55.584 16.347 2.213258 14.904685 -1.348809
2010-03-30 06:54:29 51°13.994 2°55.578 16.3512 2.213258 14.904413 -1.348809
2010-03-30 06:54:35 51°14.005 2°55.569 16.2952 2.213258 14.904413 -1.348809
2010-03-30 06:54:39 51°14.011 2°55.563 16.3006 2.213258 14.904413 -1.348809
2010-03-30 06:54:44 51°14.02 2°55.555 16.2675 2.213361 14.904902 -1.348809
2010-03-30 06:54:49 51°14.028 2°55.546 16.244 2.213258 14.904142 -1.348809
2010-03-30 06:54:54 51°14.037 2°55.537 16.2319 2.213051 14.902893 -1.348809
2010-03-30 06:54:59 51°14.046 2°55.528 16.3083 2.213258 14.904413 -1.348809
2010-03-30 06:55:04 51°14.056 2°55.519 16.2983 2.213154 14.903653 -1.348809
2010-03-30 06:55:09 51°14.065 2°55.508 16.2834 2.213154 14.903653 -1.348809
2010-03-30 06:55:14 51°14.074 2°55.498 16.2171 2.213154 14.903381 -1.348809
2010-03-30 06:55:20 51°14.085 2°55.485 16.2022 2.212948 14.901861 -1.348809
2010-03-30 06:55:24 51°14.093 2°55.477 16.2456 2.213051 14.902621 -1.348809
2010-03-30 06:55:29 51°14.102 2°55.466 16.2298 2.213051 14.902621 -1.348809
2010-03-30 06:55:34 51°14.112 2°55.455 16.215 2.212948 14.901861 -1.348809
2010-03-30 06:55:39 51°14.122 2°55.444 16.1994 2.212948 14.901861 -1.348809
2010-03-30 06:55:44 51°14.132 2°55.433 16.2232 2.213051 14.902893 -1.348809
2010-03-30 06:55:49 51°14.142 2°55.422 16.1927 2.212948 14.901861 -1.348809
2010-03-30 06:55:54 51°14.152 2°55.41 16.2135 2.212844 14.901373 -1.348809
2010-03-30 06:55:59 51°14.163 2°55.398 16.1793 2.212844 14.901645 -1.348809
2010-03-30 06:56:04 51°14.173 2°55.386 16.168 2.212741 14.900884 -1.348809
2010-03-30 06:56:09 51°14.184 2°55.374 16.1624 2.212741 14.900884 -1.348809
2010-03-30 06:56:14 51°14.195 2°55.361 16.2032 2.212741 14.900884 -1.348809
2010-03-30 06:56:19 51°14.206 2°55.349 16.1804 2.212741 14.900884 -1.348809
2010-03-30 06:56:24 51°14.217 2°55.336 16.1846 2.212638 14.900124 -1.348809
2010-03-30 06:56:29 51°14.228 2°55.323 16.1901 2.212638 14.900124 -1.348809
2010-03-30 06:56:34 51°14.239 2°55.31 16.1976 2.212534 14.899364 -1.348809
2010-03-30 06:56:39 51°14.25 2°55.297 16.2021 2.212534 14.899364 -1.348809
2010-03-30 06:56:44 51°14.261 2°55.284 16.143 2.212534 14.899364 -1.348809
2010-03-30 06:56:49 51°14.272 2°55.27 16.1265 2.212431 14.898604 -1.348809
2010-03-30 06:56:54 51°14.283 2°55.257 16.1466 2.212328 14.898387 -1.348809
2010-03-30 06:56:59 51°14.295 2°55.244 16.2054 2.212431 14.899691 -1.348809
2010-03-30 06:57:04 51°14.306 2°55.23 16.1977 2.212018 14.897194 -1.348809
2010-03-30 06:57:09 51°14.317 2°55.217 16.2387 2.212018 14.897194 -1.348809
2010-03-30 06:57:14 51°14.329 2°55.204 16.229 2.212224 14.899802 -1.348809
2010-03-30 06:57:19 51°14.341 2°55.191 16.1426 2.212328 14.900562 -1.348809
2010-03-30 06:57:24 51°14.353 2°55.179 16.2023 2.212431 14.901594 -1.348809
2010-03-30 06:57:29 51°14.365 2°55.166 16.1914 2.212431 14.902138 -1.348809
2010-03-30 06:57:34 51°14.377 2°55.154 16.1949 2.212328 14.901106 -1.348809
2010-03-30 06:57:39 51°14.39 2°55.141 16.1713 2.212328 14.901106 -1.348809
2010-03-30 06:57:44 51°14.402 2°55.129 16.2065 2.212431 14.901866 -1.348809
2010-03-30 06:57:49 51°14.415 2°55.116 16.2036 2.212224 14.900617 -1.348809
2010-03-30 06:57:54 51°14.427 2°55.104 16.2178 2.212328 14.901377 -1.348809
2010-03-30 06:57:59 51°14.439 2°55.091 16.1744 2.212121 14.900129 -1.348809
2010-03-30 06:58:04 51°14.452 2°55.078 16.1329 2.212018 14.899368 -1.348809
2010-03-30 06:58:09 51°14.464 2°55.066 16.1221 2.212018 14.899368 -1.348809
2010-03-30 06:58:14 51°14.477 2°55.053 16.1899 2.212121 14.900401 -1.348809
2010-03-30 06:58:19 51°14.49 2°55.041 16.2412 2.212018 14.899912 -1.348809
2010-03-30 06:58:24 51°14.503 2°55.029 16.2887 2.212121 14.901488 -1.348809
2010-03-30 06:58:29 51°14.515 2°55.016 16.3069 2.212225 14.903065 -1.348809
2010-03-30 06:58:34 51°14.527 2°55.001 16.2617 2.211811 14.898935 -1.348809
2010-03-30 06:58:39 51°14.537 2°54.984 16.2087 2.211811 14.898935 -1.348809
2010-03-30 06:58:44 51°14.547 2°54.967 16.2326 2.211708 14.896816 -1.348809
2010-03-30 06:58:49 51°14.557 2°54.949 16.188 2.211501 14.895295 -1.348809
2010-03-30 06:58:54 51°14.567 2°54.931 16.2403 2.211088 14.892797 -1.348809
2010-03-30 06:58:59 51°14.577 2°54.912 16.2355 2.210778 14.89106 -1.348809
2010-03-30 06:59:04 51°14.585 2°54.892 16.2419 2.211501 14.896926 -1.348809
2010-03-30 06:59:09 51°14.594 2°54.872 16.2271 2.211501 14.896926 -1.348809
2010-03-30 06:59:14 51°14.601 2°54.85 16.2104 2.211295 14.896221 -1.348809
2010-03-30 06:59:19 51°14.607 2°54.828 16.2211 2.211605 14.89823 -1.348809
2010-03-30 06:59:24 51°14.613 2°54.804 16.2211 2.211501 14.897742 -1.348809
2010-03-30 06:59:29 51°14.617 2°54.78 16.1814 2.209848 14.885032 -1.348809
2010-03-30 06:59:34 51°14.62 2°54.755 16.1731 2.210468 14.889051 -1.348809
2010-03-30 06:59:39 51°14.623 2°54.73 16.1746 2.210468 14.889051 -1.348809
2010-03-30 06:59:44 51°14.625 2°54.704 16.2064 2.211501 14.897742 -1.348809
2010-03-30 06:59:49 51°14.626 2°54.678 16.2048 2.209745 14.885087 -1.348809
2010-03-30 06:59:54 51°14.625 2°54.65 16.1586 2.208092 14.87265 -1.348809
2010-03-30 06:59:59 51°14.624 2°54.623 16.1815 2.209332 14.881231 -1.348809
2010-03-30 07:00:05 51°14.621 2°54.591 16.1967 2.210881 14.892364 -1.348809
2010-03-30 07:00:09 51°14.618 2°54.569 16.1818 2.210881 14.892364 -1.348809
2010-03-30 07:00:14 51°14.614 2°54.543 16.0846 2.204682 14.84675 -1.348809
2010-03-30 07:00:19 51°14.608 2°54.516 15.9416 2.113253 14.173676 -1.348809
2010-03-30 07:00:24 51°14.601 2°54.49 15.8998 2.210158 14.884054 -1.348809
2010-03-30 07:00:29 51°14.594 2°54.463 15.9916 2.211088 14.893341 -1.348809
2010-03-30 07:00:34 51°14.587 2°54.436 15.9364 2.210778 14.89106 -1.348809
2010-03-30 07:00:39 51°14.58 2°54.408 15.9379 2.210778 14.89106 -1.348809
2010-03-30 07:00:44 51°14.572 2°54.381 15.9965 2.209848 14.884217 -1.348809
2010-03-30 07:00:49 51°14.565 2°54.353 16.0098 2.210158 14.887041 -1.348809
2010-03-30 07:00:54 51°14.556 2°54.326 15.996 2.210571 14.890083 -1.348809
2010-03-30 07:00:59 51°14.548 2°54.298 16.0216 2.210158 14.887856 -1.348809
2010-03-30 07:01:04 51°14.539 2°54.271 16.0517 2.206439 14.860215 -1.348809
2010-03-30 07:01:09 51°14.53 2°54.244 15.9859 2.206439 14.860215 -1.348809
2010-03-30 07:01:14 51°14.52 2°54.217 15.9988 2.209745 14.884815 -1.348809
2010-03-30 07:01:19 51°14.51 2°54.19 15.9151 2.208195 14.872868 -1.348809
2010-03-30 07:01:24 51°14.5 2°54.164 15.9892 2.209641 14.882697 -1.348809
2010-03-30 07:01:29 51°14.49 2°54.137 15.9526 2.201583 14.823409 -1.348809
2010-03-30 07:01:34 51°14.479 2°54.111 15.9618 2.206439 14.858588 -1.348809
2010-03-30 07:01:39 51°14.469 2°54.084 15.9566 2.206439 14.858588 -1.348809
2010-03-30 07:01:44 51°14.458 2°54.059 15.9287 2.206129 14.856308 -1.348809
2010-03-30 07:01:49 51°14.447 2°54.033 15.9435 2.199516 14.80767 -1.348809
2010-03-30 07:01:53 51°14.438 2°54.012 15.9717 2.207782 14.86847 -1.348809
2010-03-30 07:01:59 51°14.426 2°53.98 15.8795 2.208092 14.871293 -1.348809
2010-03-30 07:02:04 51°14.414 2°53.954 15.9274 2.201789 14.825199 -1.348809
2010-03-30 07:02:09 51°14.404 2°53.928 15.8821 2.201789 14.825199 -1.348809
2010-03-30 07:02:14 51°14.393 2°53.902 15.9557 2.207368 14.867057 -1.348809
2010-03-30 07:02:19 51°14.382 2°53.875 15.9441 2.207678 14.870152 -1.348809
2010-03-30 07:02:24 51°14.372 2°53.849 15.9175 2.209642 14.884598 -1.348809
2010-03-30 07:02:29 51°14.361 2°53.822 15.9831 2.208195 14.873953 -1.348809
2010-03-30 07:02:33 51°14.353 2°53.801 15.9651 2.209538 14.884109 -1.348809
2010-03-30 07:02:39 51°14.34 2°53.769 15.9884 2.209538 14.884109 -1.348809
2010-03-30 07:02:44 51°14.33 2°53.742 15.9188 2.207988 14.872433 -1.348809
2010-03-30 07:02:49 51°14.319 2°53.715 15.9857 2.206955 14.865101 -1.348809
2010-03-30 07:02:53 51°14.31 2°53.694 15.9684 2.209848 14.886934 -1.348809
2010-03-30 07:02:59 51°14.297 2°53.662 15.9765 2.205612 14.856031 -1.348809
2010-03-30 07:03:04 51°14.286 2°53.635 15.9599 2.208092 14.874822 -1.348809
2010-03-30 07:03:09 51°14.275 2°53.609 15.9385 2.208092 14.874822 -1.348809
2010-03-30 07:03:14 51°14.265 2°53.582 15.9397 2.208712 14.879384 -1.348809
2010-03-30 07:03:19 51°14.254 2°53.555 15.9467 2.209332 14.884218 -1.348809
2010-03-30 07:03:24 51°14.243 2°53.528 15.9824 2.207575 14.871291 -1.348809
2010-03-30 07:03:29 51°14.233 2°53.501 15.9828 2.209952 14.889325 -1.348809
2010-03-30 07:03:34 51°14.222 2°53.473 15.9712 2.210158 14.891118 -1.348809
2010-03-30 07:03:39 51°14.212 2°53.445 15.9936 2.210158 14.891118 -1.348809
2010-03-30 07:03:44 51°14.201 2°53.418 15.9914 2.209228 14.884273 -1.348809
2010-03-30 07:03:49 51°14.191 2°53.39 15.9242 2.210055 14.891173 -1.348809
2010-03-30 07:03:53 51°14.182 2°53.368 15.9868 2.207885 14.874659 -1.348809
2010-03-30 07:03:59 51°14.169 2°53.335 15.989 2.209745 14.889163 -1.348809
2010-03-30 07:04:04 51°14.159 2°53.307 15.9397 2.208402 14.878733 -1.348809
2010-03-30 07:04:09 51°14.148 2°53.279 15.937 2.208402 14.878733 -1.348809
2010-03-30 07:04:14 51°14.137 2°53.252 16.0166 2.209435 14.886338 -1.348809
2010-03-30 07:04:19 51°14.126 2°53.223 15.9702 2.209745 14.888347 -1.348809
2010-03-30 07:04:24 51°14.115 2°53.196 16.0056 2.207472 14.87216 -1.348809
2010-03-30 07:04:29 51°14.105 2°53.167 15.9073 2.209538 14.887098 -1.348809
2010-03-30 07:04:34 51°14.094 2°53.14 16.027 2.209745 14.888891 -1.348809
2010-03-30 07:04:39 51°14.084 2°53.112 15.9833 2.209745 14.888891 -1.348809
2010-03-30 07:04:44 51°14.073 2°53.084 15.9003 2.210055 14.892532 -1.348809
2010-03-30 07:04:49 51°14.062 2°53.056 15.8728 2.208815 14.882861 -1.348809
2010-03-30 07:04:54 51°14.051 2°53.028 15.9211 2.209745 14.889706 -1.348809
2010-03-30 07:04:59 51°14.041 2°53 15.8642 2.209848 14.890739 -1.348809
2010-03-30 07:05:04 51°14.03 2°52.971 15.9499 2.209848 14.891011 -1.348809
2010-03-30 07:05:09 51°14.02 2°52.942 15.9494 2.209848 14.891011 -1.348809
2010-03-30 07:05:14 51°14.01 2°52.913 16.0023 2.209848 14.891555 -1.348809
2010-03-30 07:05:19 51°14.001 2°52.883 15.9785 2.209952 14.892859 -1.348809
2010-03-30 07:05:24 51°13.991 2°52.854 15.9894 2.209952 14.893403 -1.348809
2010-03-30 07:05:29 51°13.982 2°52.825 16.0038 2.209745 14.892425 -1.348809
2010-03-30 07:05:34 51°13.972 2°52.796 16.006 2.210055 14.894708 -1.348809
2010-03-30 07:05:39 51°13.962 2°52.767 15.9692 2.210055 14.894708 -1.348809
2010-03-30 07:05:44 51°13.951 2°52.739 16.0038 2.209848 14.892914 -1.348809
2010-03-30 07:05:49 51°13.941 2°52.71 15.9393 2.209745 14.892425 -1.348809
2010-03-30 07:05:54 51°13.93 2°52.681 16.0308 2.209848 14.892914 -1.348809
2010-03-30 07:05:59 51°13.92 2°52.652 16.0115 2.209745 14.892697 -1.348809
2010-03-30 07:06:04 51°13.909 2°52.624 16.0005 2.209745 14.892969 -1.348809
2010-03-30 07:06:09 51°13.898 2°52.596 15.9747 2.209745 14.892969 -1.348809
2010-03-30 07:06:14 51°13.887 2°52.568 16.0251 2.209745 14.892969 -1.348809
2010-03-30 07:06:19 51°13.876 2°52.539 15.9658 2.209538 14.891448 -1.348809
2010-03-30 07:06:24 51°13.865 2°52.512 16.0186 2.209642 14.891937 -1.348809
2010-03-30 07:06:29 51°13.854 2°52.483 15.9786 2.209435 14.890415 -1.348809
2010-03-30 07:06:34 51°13.843 2°52.454 15.9954 2.209332 14.889654 -1.348809
2010-03-30 07:06:39 51°13.833 2°52.425 15.9393 2.209332 14.889654 -1.348809
2010-03-30 07:06:44 51°13.822 2°52.397 16.0388 2.209435 14.890143 -1.348809
2010-03-30 07:06:49 51°13.812 2°52.368 15.8809 2.209435 14.890687 -1.348809
2010-03-30 07:06:54 51°13.802 2°52.339 16.0129 2.209435 14.890959 -1.348809
2010-03-30 07:06:59 51°13.792 2°52.31 15.9896 2.209435 14.891503 -1.348809
2010-03-30 07:07:04 51°13.781 2°52.281 16.0133 2.209332 14.890742 -1.348809
2010-03-30 07:07:09 51°13.771 2°52.252 16.0239 2.209332 14.890742 -1.348809
2010-03-30 07:07:14 51°13.761 2°52.223 16.0299 2.209435 14.891503 -1.348809
2010-03-30 07:07:19 51°13.75 2°52.196 16.0389 2.209228 14.890797 -1.348809
2010-03-30 07:07:24 51°13.74 2°52.167 16.0702 2.209435 14.892863 -1.348809
2010-03-30 07:07:29 51°13.73 2°52.14 16.0528 2.209332 14.892374 -1.348809
2010-03-30 07:07:33 51°13.721 2°52.119 16.0669 2.209332 14.892374 -1.348809
2010-03-30 07:07:39 51°13.709 2°52.087 16.0559 2.209332 14.892374 -1.348809
2010-03-30 07:07:44 51°13.699 2°52.061 16.0115 2.209332 14.892374 -1.348809
2010-03-30 07:07:49 51°13.689 2°52.035 16.0296 2.209125 14.89058 -1.348809
2010-03-30 07:07:53 51°13.681 2°52.015 16.053 2.208918 14.889059 -1.348809
2010-03-30 07:07:59 51°13.67 2°51.986 16.0283 2.209022 14.88982 -1.348809
2010-03-30 07:08:04 51°13.661 2°51.962 16.0403 2.209125 14.89058 -1.348809
2010-03-30 07:08:09 51°13.652 2°51.938 16.0324 2.209125 14.89058 -1.348809
2010-03-30 07:08:14 51°13.643 2°51.915 16.0534 2.209022 14.890092 -1.348809
2010-03-30 07:08:19 51°13.635 2°51.891 16.0858 2.209125 14.890852 -1.348809
2010-03-30 07:08:25 51°13.624 2°51.863 16.0812 2.209125 14.891668 -1.348809
2010-03-30 07:08:29 51°13.618 2°51.844 16.0801 2.209125 14.891941 -1.348809
2010-03-30 07:08:34 51°13.609 2°51.821 16.068 2.209022 14.891996 -1.348809
2010-03-30 07:08:39 51°13.601 2°51.798 16.0538 2.209022 14.891996 -1.348809
2010-03-30 07:08:44 51°13.593 2°51.776 16.0636 2.209022 14.892268 -1.348809
2010-03-30 07:08:49 51°13.585 2°51.753 16.0612 2.209125 14.893573 -1.348809
2010-03-30 07:08:54 51°13.577 2°51.73 16.0631 2.209022 14.89254 -1.348809
2010-03-30 07:08:59 51°13.569 2°51.708 16.0414 2.208919 14.892051 -1.348809
2010-03-30 07:09:04 51°13.561 2°51.686 16.0777 2.209022 14.892812 -1.348809
2010-03-30 07:09:09 51°13.554 2°51.666 16.0866 2.209022 14.892812 -1.348809
2010-03-30 07:09:14 51°13.547 2°51.646 16.0855 2.208815 14.891562 -1.348809
2010-03-30 07:09:19 51°13.54 2°51.627 16.0841 2.208919 14.892867 -1.348809
2010-03-30 07:09:24 51°13.533 2°51.61 16.1034 2.208919 14.893411 -1.348809
2010-03-30 07:09:29 51°13.526 2°51.593 16.0937 2.208919 14.893684 -1.348809
2010-03-30 07:09:34 51°13.519 2°51.576 16.0958 2.208919 14.893956 -1.348809
2010-03-30 07:09:39 51°13.513 2°51.56 16.084 2.208919 14.893956 -1.348809
2010-03-30 07:09:44 51°13.506 2°51.545 16.1089 2.208815 14.893467 -1.348809
2010-03-30 07:09:49 51°13.5 2°51.529 16.0998 2.208609 14.891673 -1.348809
2010-03-30 07:09:54 51°13.494 2°51.515 16.1263 2.208712 14.892978 -1.348809
2010-03-30 07:09:59 51°13.488 2°51.501 16.1186 2.208712 14.892706 -1.348809
2010-03-30 07:10:04 51°13.483 2°51.489 16.1211 2.208609 14.891945 -1.348809
2010-03-30 07:10:09 51°13.477 2°51.476 16.1183 2.208609 14.891945 -1.348809
2010-03-30 07:10:14 51°13.472 2°51.465 16.1276 2.208712 14.892434 -1.348809
2010-03-30 07:10:19 51°13.467 2°51.455 16.0894 2.208609 14.891673 -1.348809
2010-03-30 07:10:24 51°13.462 2°51.447 16.1161 2.208505 14.890639 -1.348809
2010-03-30 07:10:29 51°13.458 2°51.439 16.1193 2.208505 14.890639 -1.348809
2010-03-30 07:10:34 51°13.455 2°51.432 16.1329 2.208505 14.891184 -1.348809
2010-03-30 07:10:39 51°13.452 2°51.426 16.1133 2.208505 14.891184 -1.348809
2010-03-30 07:10:44 51°13.449 2°51.421 16.0656 2.208505 14.892 -1.348809
2010-03-30 07:10:49 51°13.448 2°51.417 16.1217 2.208609 14.891945 -1.348809
2010-03-30 07:10:54 51°13.446 2°51.414 16.0656 2.208092 14.889228 -1.348809
2010-03-30 07:10:59 51°13.446 2°51.411 16.0056 2.207885 14.887977 -1.348809
2010-03-30 07:11:04 51°13.446 2°51.41 16.0973 2.208402 14.890695 -1.348809
2010-03-30 07:11:09 51°13.446 2°51.409 16.1184 2.208402 14.890695 -1.348809
2010-03-30 07:11:14 51°13.446 2°51.408 16.1004 2.208195 14.889717 -1.348809
2010-03-30 07:11:20 51°13.446 2°51.408 16.123 2.208299 14.89075 -1.348809
2010-03-30 07:11:25 51°13.446 2°51.407 16.1122 2.208402 14.891511 -1.348809
2010-03-30 07:11:31 51°13.446 2°51.406 16.1047 2.208299 14.89075 -1.348809
2010-03-30 07:11:37 51°13.446 2°51.405 16.106 2.208195 14.890533 -1.348809
2010-03-30 07:11:42 51°13.446 2°51.405 16.0899 2.208195 14.890533 -1.348809
2010-03-30 07:11:48 51°13.446 2°51.404 16.0714 2.208402 14.8926 -1.348809
2010-03-30 07:11:53 51°13.446 2°51.403 16.0808 2.208299 14.891838 -1.348809
2010-03-30 07:11:57 51°13.446 2°51.402 16.0666 2.208092 14.891132 -1.348809
2010-03-30 07:12:02 51°13.446 2°51.401 16.0973 2.208195 14.891622 -1.348809
2010-03-30 07:12:07 51°13.445 2°51.4 16.0479 2.208195 14.891349 -1.348809
2010-03-30 07:12:12 51°13.445 2°51.399 16.097 2.208195 14.891349 -1.348809
2010-03-30 07:12:17 51°13.445 2°51.398 16.0765 2.208092 14.890044 -1.348809
2010-03-30 07:12:21 51°13.444 2°51.397 16.1001 2.208092 14.890044 -1.348809
2010-03-30 07:12:26 51°13.444 2°51.396 16.0932 2.208092 14.889772 -1.348809
2010-03-30 07:12:31 51°13.444 2°51.395 16.0956 2.208092 14.890044 -1.348809
2010-03-30 07:12:36 51°13.444 2°51.394 16.088 2.207885 14.889338 -1.348809
2010-03-30 07:12:41 51°13.443 2°51.393 16.0943 2.207885 14.889338 -1.348809
2010-03-30 07:12:45 51°13.443 2°51.392 16.0624 2.207989 14.890371 -1.348809
2010-03-30 07:12:50 51°13.442 2°51.391 15.5938 2.207472 14.886837 -1.348809
2010-03-30 07:12:55 51°13.442 2°51.39 15.9134 2.198587 14.816785 -1.348809
2010-03-30 07:13:00 51°13.442 2°51.388 15.9674 2.206129 14.872864 -1.348809
2010-03-30 07:13:05 51°13.441 2°51.387 15.8035 2.207266 14.884771 -1.348809
2010-03-30 07:13:09 51°13.441 2°51.386 15.7856 2.207266 14.884771 -1.348809
2010-03-30 07:13:14 51°13.441 2°51.384 15.7885 2.207782 14.888849 -1.348809
2010-03-30 07:13:19 51°13.44 2°51.383 15.7984 2.207782 14.889121 -1.348809
2010-03-30 07:13:24 51°13.44 2°51.381 15.8053 2.207885 14.88961 -1.348809
2010-03-30 07:13:29 51°13.44 2°51.38 15.8159 2.207782 14.889393 -1.348809
2010-03-30 07:13:33 51°13.439 2°51.379 15.8204 2.207782 14.890482 -1.348809
2010-03-30 07:13:39 51°13.439 2°51.377 15.8281 2.207782 14.890482 -1.348809
2010-03-30 07:13:44 51°13.438 2°51.375 15.8324 2.207679 14.890537 -1.348809
2010-03-30 07:13:49 51°13.438 2°51.374 15.8348 2.207679 14.891898 -1.348809
2010-03-30 07:13:54 51°13.437 2°51.372 15.8436 2.207679 14.891626 -1.348809
2010-03-30 07:13:59 51°13.437 2°51.37 15.8632 2.207885 14.89206 -1.348809
2010-03-30 07:14:04 51°13.436 2°51.369 15.8643 2.207575 14.887871 -1.348809
2010-03-30 07:14:09 51°13.436 2°51.367 15.8669 2.207575 14.887871 -1.348809
2010-03-30 07:14:14 51°13.435 2°51.365 15.8691 2.207575 14.887054 -1.348809
2010-03-30 07:14:19 51°13.435 2°51.363 15.8663 2.207369 14.88526 -1.348809
2010-03-30 07:14:24 51°13.434 2°51.362 15.8708 2.207369 14.885532 -1.348809
2010-03-30 07:14:29 51°13.434 2°51.36 15.8738 2.207266 14.885315 -1.348809
2010-03-30 07:14:34 51°13.433 2°51.358 15.8749 2.207266 14.886403 -1.348809
2010-03-30 07:14:39 51°13.433 2°51.356 15.8767 2.207266 14.886403 -1.348809
2010-03-30 07:14:44 51°13.433 2°51.354 15.8806 2.207369 14.887709 -1.348809
2010-03-30 07:14:49 51°13.432 2°51.352 15.8864 2.207369 14.888253 -1.348809
2010-03-30 07:14:54 51°13.432 2°51.35 15.8844 2.207162 14.887275 -1.348809
2010-03-30 07:14:59 51°13.431 2°51.348 15.8875 2.207266 14.888308 -1.348809
2010-03-30 07:15:04 51°13.431 2°51.346 15.889 2.207162 14.887547 -1.348809
2010-03-30 07:15:09 51°13.43 2°51.344 15.8892 2.207162 14.887547 -1.348809
2010-03-30 07:15:14 51°13.43 2°51.342 15.8904 2.207162 14.887547 -1.348809
2010-03-30 07:15:19 51°13.429 2°51.34 15.8901 2.207059 14.886514 -1.348809
2010-03-30 07:15:24 51°13.429 2°51.338 15.8936 2.207059 14.886786 -1.348809
2010-03-30 07:15:29 51°13.428 2°51.336 15.8935 2.207162 14.887547 -1.348809
2010-03-30 07:15:34 51°13.427 2°51.334 15.8925 2.207059 14.88733 -1.383633
2010-03-30 07:15:40 51°13.427 2°51.331 15.8945 2.207059 14.88733 -1.383633
2010-03-30 07:15:44 51°13.426 2°51.33 15.904 2.207059 14.88733 -1.348809
2010-03-30 07:15:49 51°13.426 2°51.327 15.9026 2.207059 14.887602 -1.348809
2010-03-30 07:15:54 51°13.425 2°51.325 15.904 2.206852 14.886624 -1.348809
2010-03-30 07:15:59 51°13.425 2°51.323 15.9056 2.206956 14.887385 -1.348809
2010-03-30 07:16:04 51°13.424 2°51.321 15.9099 2.206852 14.886624 -1.348809
2010-03-30 07:16:09 51°13.424 2°51.318 15.9067 2.206852 14.886624 -1.348809
2010-03-30 07:16:14 51°13.423 2°51.316 15.911 2.206956 14.887385 -1.348809
2010-03-30 07:16:19 51°13.422 2°51.314 15.9095 2.206852 14.886624 -1.348809
2010-03-30 07:16:24 51°13.422 2°51.312 15.9094 2.206852 14.886624 -1.348809
2010-03-30 07:16:29 51°13.421 2°51.309 15.9141 2.206852 14.887168 -1.348809
2010-03-30 07:16:34 51°13.421 2°51.307 15.9165 2.206749 14.886407 -1.348809
2010-03-30 07:16:39 51°13.42 2°51.305 15.9204 2.206749 14.886407 -1.348809
2010-03-30 07:16:44 51°13.419 2°51.302 15.9196 2.206646 14.885918 -1.383633
2010-03-30 07:16:49 51°13.419 2°51.3 15.9252 2.206542 14.885156 -1.348809
2010-03-30 07:16:54 51°13.418 2°51.297 15.9233 2.206646 14.88619 -1.383633
2010-03-30 07:16:59 51°13.418 2°51.295 15.9254 2.206749 14.887224 -1.383633
2010-03-30 07:17:04 51°13.417 2°51.293 15.9267 2.206542 14.885973 -1.383633
2010-03-30 07:17:09 51°13.416 2°51.29 15.9334 2.206542 14.885973 -1.383633
2010-03-30 07:17:14 51°13.416 2°51.288 15.9331 2.206646 14.887279 -1.348809
2010-03-30 07:17:19 51°13.415 2°51.285 15.9303 2.206646 14.887551 -1.348809
2010-03-30 07:17:24 51°13.415 2°51.282 15.9398 2.206646 14.887551 -1.348809
2010-03-30 07:17:29 51°13.414 2°51.28 15.9272 2.206542 14.887062 -1.348809
2010-03-30 07:17:34 51°13.413 2°51.277 15.9435 2.206439 14.8863 -1.348809
2010-03-30 07:17:39 51°13.413 2°51.275 15.9334 2.206439 14.8863 -1.348809
2010-03-30 07:17:44 51°13.412 2°51.272 15.9418 2.206336 14.885811 -1.348809
2010-03-30 07:17:49 51°13.412 2°51.269 15.9377 2.206439 14.886845 -1.348809
2010-03-30 07:17:54 51°13.411 2°51.267 15.9422 2.206336 14.885811 -1.348809
2010-03-30 07:17:59 51°13.411 2°51.264 15.9427 2.206336 14.886355 -1.348809
2010-03-30 07:18:04 51°13.41 2°51.261 15.9457 2.206336 14.886355 -1.348809
2010-03-30 07:18:09 51°13.409 2°51.258 15.9506 2.206336 14.886355 -1.348809
2010-03-30 07:18:14 51°13.409 2°51.256 15.9486 2.206336 14.887172 -1.383633
2010-03-30 07:18:19 51°13.408 2°51.253 15.9594 2.206336 14.887172 -1.383633
2010-03-30 07:18:24 51°13.407 2°51.25 15.9433 2.206233 14.886683 -1.348809
2010-03-30 07:18:29 51°13.407 2°51.248 15.9435 2.206233 14.886955 -1.348809
2010-03-30 07:18:34 51°13.406 2°51.245 15.9558 2.206233 14.886955 -1.348809
2010-03-30 07:18:39 51°13.406 2°51.242 15.958 2.206233 14.886955 -1.348809
2010-03-30 07:18:44 51°13.405 2°51.239 15.9553 2.206129 14.886738 -1.348809
2010-03-30 07:18:49 51°13.404 2°51.236 15.9563 2.206129 14.886738 -1.383633
2010-03-30 07:18:54 51°13.404 2°51.234 15.9626 2.206026 14.886521 -1.348809
2010-03-30 07:18:59 51°13.403 2°51.231 15.9566 2.206129 14.887283 -1.348809
2010-03-30 07:19:04 51°13.403 2°51.228 15.9689 2.206026 14.887066 -1.348809
2010-03-30 07:19:09 51°13.402 2°51.225 15.969 2.206026 14.887066 -1.348809
2010-03-30 07:19:14 51°13.401 2°51.222 15.9636 2.206026 14.887066 -1.348809
2010-03-30 07:19:19 51°13.401 2°51.219 15.9775 2.206026 14.887338 -1.348809
2010-03-30 07:19:24 51°13.4 2°51.216 15.9604 2.205923 14.886849 -1.348809
2010-03-30 07:19:29 51°13.4 2°51.213 15.9758 2.205923 14.887121 -1.383633
2010-03-30 07:19:34 51°13.399 2°51.21 15.9814 2.205819 14.886632 -1.348809
2010-03-30 07:19:39 51°13.399 2°51.207 15.9757 2.205819 14.886632 -1.348809
2010-03-30 07:19:44 51°13.398 2°51.204 15.9809 2.205819 14.886904 -1.348809
2010-03-30 07:19:49 51°13.398 2°51.201 15.9794 2.205923 14.887939 -1.348809
2010-03-30 07:19:54 51°13.397 2°51.199 15.9842 2.205819 14.887177 -1.383633
2010-03-30 07:20:00 51°13.396 2°51.195 15.9858 2.205819 14.887722 -1.348809
2010-03-30 07:20:04 51°13.396 2°51.192 15.9811 2.205716 14.887232 -1.383633
2010-03-30 07:20:09 51°13.395 2°51.189 15.9882 2.205716 14.887232 -1.383633
2010-03-30 07:20:14 51°13.395 2°51.186 15.986 2.205716 14.887505 -1.348809
2010-03-30 07:20:19 51°13.394 2°51.183 15.993 2.205613 14.886743 -1.383633
2010-03-30 07:20:24 51°13.393 2°51.18 15.9992 2.205613 14.887015 -1.348809
2010-03-30 07:20:29 51°13.393 2°51.177 16.0037 2.205613 14.887832 -1.348809
2010-03-30 07:20:34 51°13.392 2°51.174 16.0069 2.205509 14.887343 -1.383633
2010-03-30 07:20:39 51°13.392 2°51.171 16.0003 2.205509 14.887343 -1.383633
2010-03-30 07:20:44 51°13.391 2°51.168 16.0025 2.205613 14.888377 -1.383633
2010-03-30 07:20:49 51°13.39 2°51.165 15.9979 2.205613 14.888105 -1.348809
2010-03-30 07:20:54 51°13.39 2°51.161 15.9986 2.205509 14.887343 -1.383633
2010-03-30 07:20:59 51°13.389 2°51.158 16 2.205406 14.886581 -1.348809
2010-03-30 07:21:04 51°13.389 2°51.155 15.9997 2.205509 14.887615 -1.348809
2010-03-30 07:21:09 51°13.388 2°51.152 16.004 2.205509 14.887615 -1.348809
2010-03-30 07:21:14 51°13.387 2°51.149 16.006 2.205303 14.886092 -1.348809
2010-03-30 07:21:19 51°13.387 2°51.145 16.0168 2.205406 14.887398 -1.348809
2010-03-30 07:21:24 51°13.386 2°51.142 16.005 2.205199 14.886147 -1.383633
2010-03-30 07:21:29 51°13.385 2°51.139 16.02 2.205199 14.886419 -1.348809
2010-03-30 07:21:34 51°13.385 2°51.135 15.9955 2.205303 14.887454 -1.348809
2010-03-30 07:21:39 51°13.384 2°51.132 16.0253 2.205303 14.887454 -1.348809
2010-03-30 07:21:44 51°13.384 2°51.129 16.0074 2.205096 14.88593 -1.348809
2010-03-30 07:21:49 51°13.383 2°51.125 16.0379 2.205199 14.886964 -1.348809
2010-03-30 07:21:54 51°13.382 2°51.122 16.0258 2.205096 14.88702 -1.348809
2010-03-30 07:21:59 51°13.381 2°51.118 16.0323 2.205096 14.887292 -1.348809
2010-03-30 07:22:04 51°13.38 2°51.113 16.0353 2.204993 14.886803 -1.348809
2010-03-30 07:22:09 51°13.379 2°51.109 16.0432 2.204993 14.886803 -1.348809
2010-03-30 07:22:14 51°13.378 2°51.103 16.0342 2.204993 14.887348 -1.383633
2010-03-30 07:22:20 51°13.375 2°51.096 16.0473 2.204993 14.88762 -1.348809
2010-03-30 07:22:24 51°13.374 2°51.091 16.0442 2.204993 14.888166 -1.383633
2010-03-30 07:22:29 51°13.371 2°51.085 16.048 2.204993 14.888711 -1.348809
2010-03-30 07:22:34 51°13.368 2°51.079 16.054 2.204993 14.888983 -1.348809
2010-03-30 07:22:39 51°13.365 2°51.072 16.0461 2.204993 14.888983 -1.348809
2010-03-30 07:22:44 51°13.361 2°51.067 16.0548 2.20489 14.888494 -1.348809
2010-03-30 07:22:49 51°13.357 2°51.061 16.0526 2.204786 14.888004 -1.348809
2010-03-30 07:22:54 51°13.352 2°51.056 16.055 2.204786 14.888004 -1.383633
2010-03-30 07:22:59 51°13.347 2°51.051 16.0556 2.204786 14.888004 -1.348809
2010-03-30 07:23:04 51°13.343 2°51.047 16.0503 2.204683 14.886969 -1.348809
2010-03-30 07:23:09 51°13.337 2°51.044 16.0565 2.204683 14.886969 -1.348809
2010-03-30 07:23:14 51°13.332 2°51.041 16.0467 2.204683 14.887515 -1.348809
2010-03-30 07:23:19 51°13.326 2°51.039 16.0601 2.204683 14.887515 -1.348809
2010-03-30 07:23:24 51°13.321 2°51.037 16.0594 2.20458 14.886752 -1.348809
2010-03-30 07:23:29 51°13.316 2°51.036 16.0589 2.204683 14.887787 -1.383633
2010-03-30 07:23:34 51°13.31 2°51.036 16.0598 2.20458 14.887298 -1.348809
2010-03-30 07:23:39 51°13.305 2°51.037 16.058 2.20458 14.887298 -1.348809
2010-03-30 07:23:44 51°13.3 2°51.038 16.06 2.204476 14.886535 -1.348809
2010-03-30 07:23:49 51°13.295 2°51.04 16.0579 2.204373 14.886046 -1.348809
2010-03-30 07:23:54 51°13.291 2°51.043 16.0607 2.204476 14.886808 -1.348809
2010-03-30 07:23:59 51°13.287 2°51.046 16.0561 2.204476 14.886808 -1.383633
2010-03-30 07:24:04 51°13.283 2°51.05 16.0496 2.204373 14.886046 -1.348809
2010-03-30 07:24:09 51°13.279 2°51.054 16.0509 2.204373 14.886046 -1.348809
2010-03-30 07:24:14 51°13.276 2°51.058 16.0584 2.204373 14.886318 -1.383633
2010-03-30 07:24:19 51°13.274 2°51.063 16.0525 2.20427 14.885556 -1.348809
2010-03-30 07:24:24 51°13.272 2°51.068 16.06 2.204166 14.885339 -1.348809
2010-03-30 07:24:29 51°13.271 2°51.073 16.073 2.20427 14.886101 -1.348809
2010-03-30 07:24:34 51°13.27 2°51.079 16.0669 2.204166 14.885612 -1.348809
2010-03-30 07:24:40 51°13.27 2°51.085 16.0787 2.204166 14.885612 -1.348809
2010-03-30 07:24:44 51°13.27 2°51.088 16.0677 2.20396 14.88436 -1.383633
2010-03-30 07:24:49 51°13.271 2°51.093 16.0777 2.204166 14.885884 -1.348809
2010-03-30 07:24:54 51°13.273 2°51.097 16.0747 2.204063 14.885667 -1.348809
2010-03-30 07:24:59 51°13.275 2°51.101 16.0856 2.204063 14.885667 -1.383633
2010-03-30 07:25:04 51°13.278 2°51.104 16.0775 2.20396 14.884632 -1.348809
2010-03-30 07:25:09 51°13.28 2°51.107 16.0572 2.20396 14.884632 -1.348809
2010-03-30 07:25:14 51°13.284 2°51.11 16.0479 2.203856 14.883597 -1.383633
2010-03-30 07:25:19 51°13.288 2°51.113 16.0428 2.203753 14.882563 -1.348809
2010-03-30 07:25:24 51°13.292 2°51.116 16.0277 2.20365 14.881528 -1.348809
2010-03-30 07:25:29 51°13.296 2°51.12 16.0177 2.203546 14.880221 -1.383633
2010-03-30 07:25:34 51°13.301 2°51.124 16.0157 2.20365 14.881255 -1.348809
2010-03-30 07:25:39 51°13.306 2°51.129 16.0482 2.20365 14.881255 -1.348809
2010-03-30 07:25:44 51°13.311 2°51.135 16.0296 2.20365 14.8818 -1.348809
2010-03-30 07:25:49 51°13.317 2°51.141 16.0288 2.203546 14.881311 -1.383633
2010-03-30 07:25:54 51°13.323 2°51.149 16.044 2.203443 14.880821 -1.383633
2010-03-30 07:25:59 51°13.33 2°51.157 16.0508 2.203547 14.881856 -1.348809
2010-03-30 07:26:04 51°13.336 2°51.166 16.0566 2.203547 14.882946 -1.383633
2010-03-30 07:26:09 51°13.342 2°51.175 16.0614 2.203547 14.882946 -1.383633
2010-03-30 07:26:14 51°13.348 2°51.186 16.0798 2.203443 14.881911 -1.348809
2010-03-30 07:26:19 51°13.354 2°51.197 16.0815 2.203443 14.882456 -1.383633
2010-03-30 07:26:24 51°13.36 2°51.209 16.0837 2.203443 14.883001 -1.348809
2010-03-30 07:26:29 51°13.366 2°51.22 16.0869 2.20334 14.882239 -1.348809
2010-03-30 07:26:34 51°13.371 2°51.233 16.0899 2.203237 14.88284 -1.348809
2010-03-30 07:26:39 51°13.376 2°51.246 16.0901 2.203237 14.88284 -1.348809
2010-03-30 07:26:44 51°13.382 2°51.259 16.0945 2.20334 14.884693 -1.383633
2010-03-30 07:26:49 51°13.387 2°51.273 16.0887 2.20334 14.885784 -1.383633
2010-03-30 07:26:54 51°13.392 2°51.287 16.0931 2.203547 14.886763 -1.348809
2010-03-30 07:26:59 51°13.397 2°51.301 16.1001 2.203133 14.884259 -1.383633
2010-03-30 07:27:04 51°13.402 2°51.315 16.0987 2.203443 14.886274 -1.348809
2010-03-30 07:27:09 51°13.407 2°51.329 16.1029 2.203443 14.886274 -1.348809
2010-03-30 07:27:14 51°13.411 2°51.344 16.1032 2.203237 14.886112 -1.383633
2010-03-30 07:27:19 51°13.416 2°51.358 16.1084 2.203133 14.88535 -1.383633
2010-03-30 07:27:24 51°13.421 2°51.373 16.1093 2.203237 14.887476 -1.348809
2010-03-30 07:27:29 51°13.426 2°51.387 16.1136 2.20303 14.886769 -1.383633
2010-03-30 07:27:34 51°13.432 2°51.401 16.1064 2.20334 14.888512 -1.383633
2010-03-30 07:27:39 51°13.438 2°51.415 16.1186 2.20334 14.888512 -1.383633
2010-03-30 07:27:44 51°13.443 2°51.429 16.1133 2.20303 14.887042 -1.348809
2010-03-30 07:27:49 51°13.449 2°51.443 16.1165 2.203133 14.887259 -1.383633
2010-03-30 07:27:54 51°13.455 2°51.457 16.1186 2.20303 14.886769 -1.348809
2010-03-30 07:27:59 51°13.462 2°51.47 16.1085 2.20303 14.886497 -1.348809
2010-03-30 07:28:04 51°13.468 2°51.483 16.1238 2.202823 14.885517 -1.348809
2010-03-30 07:28:09 51°13.474 2°51.497 16.1094 2.202823 14.885517 -1.348809
2010-03-30 07:28:14 51°13.481 2°51.509 16.1245 2.203133 14.887259 -1.383633
2010-03-30 07:28:19 51°13.488 2°51.521 16.122 2.202513 14.882956 -1.348809
2010-03-30 07:28:24 51°13.494 2°51.532 16.1406 2.20272 14.884754 -1.348809
2010-03-30 07:28:29 51°13.5 2°51.541 16.1364 2.202824 14.888246 -1.383633
2010-03-30 07:28:34 51°13.505 2°51.549 16.1494 2.20272 14.88721 -1.383633
2010-03-30 07:28:39 51°13.511 2°51.557 16.15 2.20272 14.88721 -1.383633
2010-03-30 07:28:44 51°13.517 2°51.563 16.1469 2.20272 14.887483 -1.348809
2010-03-30 07:28:49 51°13.522 2°51.567 16.1466 2.202824 14.888246 -1.348809
2010-03-30 07:28:54 51°13.527 2°51.571 16.1447 2.20272 14.88721 -1.348809
2010-03-30 07:28:59 51°13.532 2°51.574 16.1438 2.202823 14.8877 -1.348809
2010-03-30 07:29:04 51°13.536 2°51.576 16.144 2.20272 14.886937 -1.348809
2010-03-30 07:29:09 51°13.541 2°51.576 16.1454 2.20272 14.886937 -1.348809
2010-03-30 07:29:14 51°13.545 2°51.576 16.147 2.202617 14.886447 -1.348809
2010-03-30 07:29:19 51°13.549 2°51.575 16.1468 2.202617 14.886993 -1.383633
2010-03-30 07:29:24 51°13.552 2°51.574 16.1481 2.202514 14.886776 -1.383633
2010-03-30 07:29:29 51°13.555 2°51.572 16.1497 2.20241 14.886286 -1.383633
2010-03-30 07:29:34 51°13.558 2°51.57 16.1498 2.20241 14.886286 -1.348809
2010-03-30 07:29:39 51°13.56 2°51.567 16.1526 2.20241 14.886286 -1.348809
2010-03-30 07:29:44 51°13.562 2°51.564 16.1548 2.20241 14.886013 -1.348809
2010-03-30 07:29:49 51°13.563 2°51.561 16.1562 2.20241 14.886013 -1.348809
2010-03-30 07:29:54 51°13.565 2°51.557 16.1573 2.202307 14.88525 -1.348809
2010-03-30 07:29:59 51°13.565 2°51.554 16.159 2.202307 14.88525 -1.383633
2010-03-30 07:30:04 51°13.566 2°51.551 16.1607 2.202204 14.88476 -1.383633
2010-03-30 07:30:09 51°13.567 2°51.547 16.161 2.202204 14.88476 -1.383633
2010-03-30 07:30:14 51°13.568 2°51.543 16.1621 2.202204 14.885306 -1.383633
2010-03-30 07:30:19 51°13.568 2°51.54 16.1627 2.202204 14.885306 -1.348809
2010-03-30 07:30:24 51°13.568 2°51.536 16.165 2.202204 14.885306 -1.348809
2010-03-30 07:30:29 51°13.569 2°51.532 16.1626 2.2021 14.884816 -1.383633
2010-03-30 07:30:34 51°13.569 2°51.528 16.1665 2.201997 14.884053 -1.383633
2010-03-30 07:30:39 51°13.57 2°51.525 16.1667 2.201997 14.884053 -1.383633
2010-03-30 07:30:44 51°13.57 2°51.521 16.1719 2.201997 14.884326 -1.348809
2010-03-30 07:30:49 51°13.57 2°51.517 16.1715 2.2021 14.885089 -1.348809
2010-03-30 07:30:54 51°13.571 2°51.512 16.1735 2.201997 14.884053 -1.383633
2010-03-30 07:30:59 51°13.571 2°51.508 16.1539 2.201894 14.883836 -1.383633
2010-03-30 07:31:04 51°13.571 2°51.504 16.1666 2.200551 14.872009 -1.348809
2010-03-30 07:31:09 51°13.571 2°51.5 16.1747 2.200551 14.872009 -1.348809
2010-03-30 07:31:14 51°13.571 2°51.495 16.1773 2.20117 14.875768 -1.383633
2010-03-30 07:31:19 51°13.571 2°51.491 16.1783 2.20148 14.878329 -1.383633
2010-03-30 07:31:24 51°13.571 2°51.487 16.1801 2.201377 14.878112 -1.348809
2010-03-30 07:31:29 51°13.571 2°51.483 16.1824 2.20148 14.879693 -1.383633
2010-03-30 07:31:34 51°13.571 2°51.479 16.1819 2.201584 14.881001 -1.383633
2010-03-30 07:31:39 51°13.572 2°51.475 16.1814 2.201584 14.881001 -1.383633
2010-03-30 07:31:44 51°13.572 2°51.471 16.1845 2.201584 14.881001 -1.383633
2010-03-30 07:31:49 51°13.572 2°51.467 16.1878 2.201584 14.881547 -1.348809
2010-03-30 07:31:54 51°13.572 2°51.463 16.1864 2.201377 14.880021 -1.383633
2010-03-30 07:31:59 51°13.572 2°51.459 16.1887 2.201377 14.880294 -1.383633
2010-03-30 07:32:04 51°13.572 2°51.455 16.1966 2.201274 14.879804 -1.383633
2010-03-30 07:32:09 51°13.572 2°51.45 16.1907 2.201274 14.879804 -1.383633
2010-03-30 07:32:14 51°13.572 2°51.446 16.1981 2.201377 14.88084 -1.348809
2010-03-30 07:32:19 51°13.572 2°51.442 16.1964 2.201377 14.881931 -1.348809
2010-03-30 07:32:24 51°13.572 2°51.438 16.1994 2.201377 14.881931 -1.348809
2010-03-30 07:32:29 51°13.572 2°51.434 16.1942 2.20117 14.880405 -1.383633
2010-03-30 07:32:34 51°13.572 2°51.43 16.2063 2.201067 14.880188 -1.383633
2010-03-30 07:32:39 51°13.572 2°51.426 16.2063 2.201067 14.880188 -1.383633
2010-03-30 07:32:44 51°13.572 2°51.422 16.2114 2.201171 14.881224 -1.383633
2010-03-30 07:32:49 51°13.572 2°51.418 16.2075 2.201171 14.882043 -1.383633
2010-03-30 07:32:54 51°13.572 2°51.414 16.2047 2.201274 14.882533 -1.383633
2010-03-30 07:32:59 51°13.572 2°51.41 16.2119 2.201067 14.881007 -1.383633
2010-03-30 07:33:04 51°13.572 2°51.405 16.2101 2.201171 14.881497 -1.383633
2010-03-30 07:33:09 51°13.572 2°51.402 16.2013 2.201171 14.881497 -1.383633
2010-03-30 07:33:14 51°13.571 2°51.397 16.2159 2.201171 14.881497 -1.383633
2010-03-30 07:33:19 51°13.571 2°51.393 16.2152 2.200861 14.879208 -1.383633
2010-03-30 07:33:24 51°13.571 2°51.389 16.2199 2.201067 14.881007 -1.383633
2010-03-30 07:33:29 51°13.571 2°51.385 16.2256 2.200964 14.880789 -1.348809
2010-03-30 07:33:34 51°13.571 2°51.381 16.2284 2.200861 14.880845 -1.383633
2010-03-30 07:33:39 51°13.571 2°51.377 16.2327 2.200861 14.880845 -1.383633
2010-03-30 07:33:44 51°13.571 2°51.373 16.2228 2.200861 14.881937 -1.383633
2010-03-30 07:33:49 51°13.571 2°51.369 16.2363 2.200861 14.881664 -1.383633
2010-03-30 07:33:54 51°13.57 2°51.365 16.2394 2.200964 14.882973 -1.383633
2010-03-30 07:33:59 51°13.57 2°51.361 16.2304 2.200861 14.883029 -1.383633
2010-03-30 07:34:04 51°13.57 2°51.357 16.2379 2.200757 14.881447 -1.383633
2010-03-30 07:34:09 51°13.57 2°51.354 16.2398 2.200757 14.881447 -1.383633
2010-03-30 07:34:14 51°13.57 2°51.35 16.2369 2.200757 14.88172 -1.383633
2010-03-30 07:34:19 51°13.569 2°51.346 16.2382 2.200654 14.880684 -1.383633
2010-03-30 07:34:24 51°13.569 2°51.342 16.2464 2.200654 14.880957 -1.383633
2010-03-30 07:34:29 51°13.569 2°51.339 16.2447 2.200654 14.88123 -1.383633
2010-03-30 07:34:34 51°13.569 2°51.335 16.2389 2.200551 14.880739 -1.383633
2010-03-30 07:34:39 51°13.568 2°51.332 16.238 2.200551 14.880739 -1.383633
2010-03-30 07:34:44 51°13.568 2°51.329 16.2353 2.200551 14.880193 -1.383633
2010-03-30 07:34:49 51°13.567 2°51.326 16.2321 2.200551 14.87992 -1.348809
2010-03-30 07:34:54 51°13.567 2°51.323 16.2406 2.200241 14.877085 -1.383633
2010-03-30 07:34:59 51°13.566 2°51.32 16.2524 2.200344 14.878121 -1.383633
2010-03-30 07:35:04 51°13.566 2°51.317 16.2551 2.200344 14.878667 -1.383633
2010-03-30 07:35:09 51°13.565 2°51.314 16.2517 2.200344 14.878667 -1.383633
2010-03-30 07:35:14 51°13.565 2°51.311 16.2635 2.200447 14.879703 -1.348809
2010-03-30 07:35:19 51°13.564 2°51.309 16.2624 2.200447 14.880522 -1.383633
2010-03-30 07:35:24 51°13.564 2°51.306 16.258 2.200241 14.879269 -1.383633
2010-03-30 07:35:29 51°13.563 2°51.304 16.2704 2.200344 14.879486 -1.383633
2010-03-30 07:35:34 51°13.563 2°51.302 16.2703 2.200241 14.879815 -1.383633
2010-03-30 07:35:39 51°13.563 2°51.3 16.2779 2.200241 14.879815 -1.383633
2010-03-30 07:35:44 51°13.562 2°51.298 16.2773 2.200137 14.879324 -1.383633
2010-03-30 07:35:49 51°13.562 2°51.296 16.2826 2.200137 14.879597 -1.383633
2010-03-30 07:35:54 51°13.561 2°51.294 16.2727 2.200344 14.881124 -1.383633
2010-03-30 07:35:59 51°13.56 2°51.293 16.2521 2.200241 14.880088 -1.383633
2010-03-30 07:36:04 51°13.56 2°51.291 16.2731 2.200034 14.877742 -1.383633
2010-03-30 07:36:09 51°13.559 2°51.29 16.2791 2.200034 14.877742 -1.383633
2010-03-30 07:36:14 51°13.559 2°51.288 16.2806 2.200034 14.878561 -1.383633
2010-03-30 07:36:19 51°13.558 2°51.287 16.2851 2.199931 14.878071 -1.383633
2010-03-30 07:36:24 51°13.557 2°51.285 16.2956 2.200034 14.879926 -1.383633
2010-03-30 07:36:29 51°13.557 2°51.284 16.2838 2.200034 14.880472 -1.383633
2010-03-30 07:36:34 51°13.556 2°51.282 16.293 2.199931 14.879982 -1.383633
2010-03-30 07:36:39 51°13.556 2°51.281 16.2902 2.199931 14.879982 -1.383633
2010-03-30 07:36:44 51°13.555 2°51.279 16.2924 2.200034 14.880472 -1.383633
2010-03-30 07:36:49 51°13.555 2°51.278 16.2937 2.200034 14.880745 -1.383633
2010-03-30 07:36:54 51°13.554 2°51.276 16.2939 2.200034 14.880745 -1.383633
2010-03-30 07:36:59 51°13.554 2°51.275 16.2936 2.199828 14.878946 -1.383633
2010-03-30 07:37:04 51°13.553 2°51.274 16.3054 2.199828 14.879492 -1.383633
2010-03-30 07:37:09 51°13.553 2°51.272 16.3014 2.199828 14.879492 -1.383633
2010-03-30 07:37:14 51°13.552 2°51.27 16.3023 2.199724 14.878728 -1.383633
2010-03-30 07:37:19 51°13.552 2°51.269 16.2999 2.199724 14.879001 -1.383633
2010-03-30 07:37:24 51°13.551 2°51.267 16.2998 2.199931 14.880801 -1.383633
2010-03-30 07:37:29 51°13.55 2°51.266 16.3064 2.199724 14.879001 -1.348809
2010-03-30 07:37:34 51°13.55 2°51.264 16.3006 2.199621 14.877965 -1.383633
2010-03-30 07:37:39 51°13.549 2°51.263 16.311 2.199621 14.877965 -1.383633
2010-03-30 07:37:44 51°13.549 2°51.261 16.2845 2.199621 14.877965 -1.383633
2010-03-30 07:37:49 51°13.548 2°51.26 16.3061 2.199518 14.876382 -1.348809
2010-03-30 07:37:54 51°13.548 2°51.258 16.2889 2.199414 14.875892 -1.383633
2010-03-30 07:38:00 51°13.547 2°51.256 16.3161 2.199311 14.874856 -1.383633
2010-03-30 07:38:04 51°13.547 2°51.255 16.3152 2.199414 14.876711 -1.383633
2010-03-30 07:38:09 51°13.546 2°51.253 16.3227 2.199414 14.876711 -1.383633
2010-03-30 07:38:14 51°13.546 2°51.252 16.322 2.199414 14.876984 -1.383633
2010-03-30 07:38:19 51°13.545 2°51.25 16.3284 2.199414 14.87753 -1.383633
2010-03-30 07:38:24 51°13.545 2°51.248 16.3304 2.199311 14.877586 -1.383633
2010-03-30 07:38:29 51°13.545 2°51.246 16.3327 2.199414 14.879169 -1.383633
2010-03-30 07:38:34 51°13.544 2°51.244 16.3359 2.199311 14.878951 -1.383633
2010-03-30 07:38:39 51°13.544 2°51.241 16.3309 2.199311 14.878951 -1.383633
2010-03-30 07:38:44 51°13.543 2°51.237 16.3448 2.199414 14.879442 -1.383633
2010-03-30 07:38:49 51°13.543 2°51.232 16.3505 2.199311 14.879498 -1.383633
2010-03-30 07:38:54 51°13.542 2°51.227 16.3587 2.199311 14.880864 -1.383633
2010-03-30 07:38:59 51°13.541 2°51.22 16.3573 2.199311 14.880591 -1.383633
2010-03-30 07:39:04 51°13.539 2°51.214 16.3504 2.199414 14.881901 -1.383633
2010-03-30 07:39:09 51°13.537 2°51.207 16.3502 2.199414 14.881901 -1.383633
2010-03-30 07:39:14 51°13.534 2°51.2 16.3501 2.199311 14.880044 -1.383633
2010-03-30 07:39:19 51°13.531 2°51.193 16.3505 2.199208 14.879281 -1.383633
2010-03-30 07:39:24 51°13.528 2°51.187 16.3513 2.199104 14.877971 -1.383633
2010-03-30 07:39:29 51°13.524 2°51.18 16.3538 2.199001 14.877207 -1.383633
2010-03-30 07:39:34 51°13.519 2°51.174 16.3525 2.199104 14.877971 -1.383633
2010-03-30 07:39:39 51°13.514 2°51.169 16.3561 2.199104 14.877971 -1.383633
2010-03-30 07:39:44 51°13.509 2°51.164 16.3545 2.199001 14.877207 -1.348809
2010-03-30 07:39:49 51°13.503 2°51.16 16.3521 2.198898 14.876443 -1.383633
2010-03-30 07:39:54 51°13.497 2°51.156 16.3494 2.198898 14.876443 -1.383633
2010-03-30 07:39:59 51°13.49 2°51.153 16.3581 2.198794 14.87568 -1.383633
2010-03-30 07:40:04 51°13.483 2°51.151 16.3607 2.198794 14.875953 -1.383633
2010-03-30 07:40:09 51°13.476 2°51.149 16.3595 2.198794 14.875953 -1.383633
2010-03-30 07:40:14 51°13.47 2°51.148 16.3568 2.198794 14.876226 -1.383633
2010-03-30 07:40:19 51°13.463 2°51.148 16.3565 2.198691 14.875736 -1.383633
2010-03-30 07:40:24 51°13.456 2°51.149 16.3597 2.198691 14.876009 -1.383633
2010-03-30 07:40:29 51°13.45 2°51.151 16.3693 2.198691 14.876282 -1.383633
2010-03-30 07:40:34 51°13.444 2°51.153 16.3683 2.198794 14.877865 -1.383633
2010-03-30 07:40:39 51°13.438 2°51.157 16.3721 2.198794 14.877865 -1.383633
2010-03-30 07:40:44 51°13.432 2°51.162 16.3719 2.198794 14.878138 -1.383633
2010-03-30 07:40:49 51°13.428 2°51.168 16.3719 2.198691 14.877374 -1.383633
2010-03-30 07:40:54 51°13.424 2°51.175 16.3759 2.198794 14.877865 -1.383633
2010-03-30 07:40:59 51°13.421 2°51.182 16.3735 2.198691 14.877374 -1.383633
2010-03-30 07:41:04 51°13.419 2°51.19 16.372 2.198691 14.877101 -1.383633
2010-03-30 07:41:09 51°13.418 2°51.199 16.3698 2.198691 14.877101 -1.383633
2010-03-30 07:41:14 51°13.418 2°51.208 16.3564 2.198588 14.876064 -1.383633
2010-03-30 07:41:19 51°13.418 2°51.217 16.3615 2.198175 14.872191 -1.383633
2010-03-30 07:41:24 51°13.419 2°51.226 16.3718 2.197761 14.868863 -1.383633
2010-03-30 07:41:29 51°13.421 2°51.236 16.3707 2.197968 14.870663 -1.383633
2010-03-30 07:41:34 51°13.424 2°51.245 16.3752 2.197968 14.870663 -1.383633
2010-03-30 07:41:39 51°13.427 2°51.255 16.3542 2.197968 14.870663 -1.383633
2010-03-30 07:41:44 51°13.431 2°51.264 16.3511 2.194662 14.845685 -1.383633
2010-03-30 07:41:49 51°13.436 2°51.273 16.348 2.196315 14.857628 -1.383633
2010-03-30 07:41:54 51°13.44 2°51.282 16.3487 2.194868 14.846667 -1.383633
2010-03-30 07:41:59 51°13.446 2°51.291 16.3427 2.196315 14.857355 -1.383633
2010-03-30 07:42:04 51°13.451 2°51.299 16.3464 2.195902 14.854301 -1.383633
2010-03-30 07:42:09 51°13.457 2°51.308 16.3466 2.195902 14.854301 -1.383633
2010-03-30 07:42:14 51°13.464 2°51.317 16.3502 2.194868 14.846939 -1.383633
2010-03-30 07:42:19 51°13.47 2°51.326 16.3539 2.196831 14.861718 -1.383633
2010-03-30 07:42:24 51°13.476 2°51.335 16.3592 2.197761 14.869136 -1.383633
2010-03-30 07:42:29 51°13.482 2°51.345 16.3624 2.197968 14.871482 -1.383633
2010-03-30 07:42:34 51°13.488 2°51.355 16.3628 2.197865 14.871538 -1.383633
2010-03-30 07:42:39 51°13.493 2°51.366 16.3693 2.197865 14.871538 -1.383633
2010-03-30 07:42:44 51°13.497 2°51.377 16.3734 2.197865 14.872084 -1.383633
2010-03-30 07:42:49 51°13.5 2°51.388 16.374 2.198071 14.875797 -1.383633
2010-03-30 07:42:54 51°13.503 2°51.398 16.3751 2.198175 14.877927 -1.383633
2010-03-30 07:42:59 51°13.504 2°51.408 16.3772 2.198381 14.880275 -1.383633
2010-03-30 07:43:04 51°13.505 2°51.417 16.3795 2.198175 14.879294 -1.383633
2010-03-30 07:43:09 51°13.506 2°51.426 16.3836 2.198175 14.879294 -1.383633
2010-03-30 07:43:14 51°13.506 2°51.434 16.3876 2.198071 14.879896 -1.383633
2010-03-30 07:43:19 51°13.505 2°51.441 16.3854 2.198278 14.883065 -1.383633
2010-03-30 07:43:24 51°13.504 2°51.448 16.3882 2.198278 14.883339 -1.383633
2010-03-30 07:43:29 51°13.503 2°51.455 16.3903 2.198278 14.884159 -1.383633
2010-03-30 07:43:34 51°13.502 2°51.46 16.3896 2.198381 14.884923 -1.383633
2010-03-30 07:43:39 51°13.501 2°51.465 16.3921 2.198381 14.884923 -1.383633
2010-03-30 07:43:44 51°13.499 2°51.47 16.3923 2.198175 14.882575 -1.383633
2010-03-30 07:43:49 51°13.497 2°51.473 16.3929 2.198278 14.883065 -1.383633
2010-03-30 07:43:54 51°13.496 2°51.476 16.3992 2.198175 14.882575 -1.383633
2010-03-30 07:43:59 51°13.494 2°51.478 16.4027 2.197968 14.881593 -1.383633
2010-03-30 07:44:04 51°13.492 2°51.48 16.4033 2.198071 14.882631 -1.383633
2010-03-30 07:44:09 51°13.49 2°51.481 16.4033 2.198071 14.882631 -1.383633
2010-03-30 07:44:14 51°13.488 2°51.482 16.4088 2.198071 14.883178 -1.383633
2010-03-30 07:44:19 51°13.486 2°51.482 16.4069 2.198071 14.883178 -1.383633
2010-03-30 07:44:24 51°13.484 2°51.482 16.4161 2.197968 14.88214 -1.383633
2010-03-30 07:44:29 51°13.482 2°51.482 16.4177 2.197865 14.881923 -1.383633
2010-03-30 07:44:34 51°13.481 2°51.48 16.4178 2.197968 14.883781 -1.383633
2010-03-30 07:44:39 51°13.479 2°51.479 16.4156 2.197968 14.883781 -1.383633
2010-03-30 07:44:44 51°13.478 2°51.478 16.4215 2.198071 14.883998 -1.383633
2010-03-30 07:44:49 51°13.477 2°51.477 16.4263 2.198071 14.884546 -1.383633
2010-03-30 07:44:54 51°13.475 2°51.475 16.4268 2.197968 14.884876 -1.383633
2010-03-30 07:44:59 51°13.474 2°51.474 16.4313 2.197968 14.88597 -1.383633
2010-03-30 07:45:04 51°13.472 2°51.472 16.4322 2.197968 14.885149 -1.383633
2010-03-30 07:45:09 51°13.471 2°51.471 16.4307 2.197968 14.885149 -1.383633
2010-03-30 07:45:14 51°13.469 2°51.469 16.4268 2.198175 14.886952 -1.383633
2010-03-30 07:45:19 51°13.468 2°51.467 16.4239 2.197865 14.883291 -1.383633
2010-03-30 07:45:24 51°13.467 2°51.465 16.4331 2.197658 14.880668 -1.383633
2010-03-30 07:45:29 51°13.465 2°51.464 16.4316 2.197658 14.880394 -1.383633
2010-03-30 07:45:34 51°13.464 2°51.462 16.4374 2.197452 14.87914 -1.383633
2010-03-30 07:45:39 51°13.462 2°51.459 16.4354 2.197452 14.87914 -1.383633
2010-03-30 07:45:44 51°13.461 2°51.457 16.4337 2.197555 14.879904 -1.383633
2010-03-30 07:45:49 51°13.46 2°51.456 16.4406 2.197452 14.879413 -1.383633
2010-03-30 07:45:54 51°13.458 2°51.453 16.4382 2.197348 14.878649 -1.383633
2010-03-30 07:45:59 51°13.457 2°51.451 16.4421 2.197348 14.878649 -1.383633
2010-03-30 07:46:04 51°13.456 2°51.449 16.4444 2.197348 14.878922 -1.383633
2010-03-30 07:46:09 51°13.455 2°51.447 16.446 2.197348 14.878922 -1.383633
2010-03-30 07:46:14 51°13.454 2°51.445 16.4513 2.197245 14.878158 -1.383633
2010-03-30 07:46:19 51°13.453 2°51.443 16.4477 2.197142 14.877667 -1.383633
2010-03-30 07:46:24 51°13.451 2°51.44 16.4479 2.197245 14.878705 -1.383633
2010-03-30 07:46:29 51°13.45 2°51.438 16.4478 2.197245 14.878705 -1.383633
2010-03-30 07:46:34 51°13.449 2°51.435 16.4479 2.197142 14.878214 -1.383633
2010-03-30 07:46:39 51°13.448 2°51.433 16.4585 2.197142 14.878214 -1.383633
2010-03-30 07:46:44 51°13.447 2°51.43 16.4575 2.197142 14.879035 -1.383633
2010-03-30 07:46:49 51°13.446 2°51.428 16.4589 2.197245 14.880346 -1.383633
2010-03-30 07:46:54 51°13.445 2°51.425 16.4621 2.197038 14.879091 -1.383633
2010-03-30 07:46:59 51°13.444 2°51.423 16.4667 2.197038 14.879364 -1.383633
2010-03-30 07:47:04 51°13.443 2°51.42 16.4564 2.197142 14.879855 -1.383633
2010-03-30 07:47:09 51°13.442 2°51.417 16.4745 2.197142 14.879855 -1.383633
2010-03-30 07:47:14 51°13.441 2°51.415 16.4707 2.196832 14.878109 -1.383633
2010-03-30 07:47:19 51°13.44 2°51.413 16.4788 2.197038 14.879911 -1.383633
2010-03-30 07:47:25 51°13.439 2°51.41 16.47 2.197038 14.880185 -1.383633
2010-03-30 07:47:29 51°13.438 2°51.407 16.4711 2.196935 14.879421 -1.383633
2010-03-30 07:47:34 51°13.437 2°51.405 16.4695 2.196935 14.879694 -1.383633
2010-03-30 07:47:39 51°13.436 2°51.402 16.4852 2.196935 14.879694 -1.383633
2010-03-30 07:47:44 51°13.435 2°51.399 16.4769 2.196935 14.880241 -1.383633
2010-03-30 07:47:49 51°13.434 2°51.396 16.49 2.196935 14.880515 -1.383633
2010-03-30 07:47:54 51°13.434 2°51.394 16.4928 2.197038 14.8821 -1.383633
2010-03-30 07:47:59 51°13.433 2°51.391 16.484 2.196935 14.881609 -1.383633
2010-03-30 07:48:04 51°13.432 2°51.387 16.4801 2.196832 14.880571 -1.383633
2010-03-30 07:48:09 51°13.431 2°51.384 16.4933 2.196832 14.880571 -1.383633
2010-03-30 07:48:14 51°13.431 2°51.381 16.4853 2.196728 14.88008 -1.383633
2010-03-30 07:48:19 51°13.43 2°51.378 16.5001 2.196728 14.879807 -1.383633
2010-03-30 07:48:24 51°13.429 2°51.375 16.5023 2.196728 14.88008 -1.383633
2010-03-30 07:48:29 51°13.428 2°51.372 16.504 2.196728 14.880628 -1.383633
2010-03-30 07:48:34 51°13.428 2°51.369 16.4836 2.196728 14.880628 -1.383633
2010-03-30 07:48:39 51°13.427 2°51.366 16.4962 2.196728 14.880628 -1.383633
2010-03-30 07:48:44 51°13.426 2°51.363 16.495 2.196625 14.880137 -1.383633
2010-03-30 07:48:49 51°13.426 2°51.359 16.4911 2.196522 14.879372 -1.383633
2010-03-30 07:48:54 51°13.425 2°51.356 16.488 2.196522 14.879646 -1.383633
2010-03-30 07:48:59 51°13.425 2°51.353 16.4941 2.196522 14.879646 -1.383633
2010-03-30 07:49:04 51°13.424 2°51.35 16.4942 2.196419 14.879428 -1.383633
2010-03-30 07:49:09 51°13.423 2°51.347 16.5133 2.196419 14.879428 -1.383633
2010-03-30 07:49:14 51°13.423 2°51.344 16.5118 2.196419 14.879702 -1.383633
2010-03-30 07:49:19 51°13.422 2°51.341 16.5073 2.196315 14.879211 -1.383633
2010-03-30 07:49:24 51°13.421 2°51.338 16.5063 2.196315 14.879485 -1.383633
2010-03-30 07:49:29 51°13.421 2°51.335 16.5056 2.196315 14.879485 -1.383633
2010-03-30 07:49:34 51°13.421 2°51.331 16.5088 2.196212 14.879267 -1.383633
2010-03-30 07:49:39 51°13.42 2°51.328 16.5176 2.196212 14.879267 -1.383633
2010-03-30 07:49:44 51°13.42 2°51.324 16.5286 2.196212 14.879267 -1.383633
2010-03-30 07:49:49 51°13.419 2°51.321 16.5264 2.196109 14.879324 -1.383633
2010-03-30 07:49:54 51°13.419 2°51.318 16.5316 2.196212 14.880362 -1.383633
2010-03-30 07:49:59 51°13.419 2°51.316 16.5284 2.196109 14.880145 -1.383633
2010-03-30 07:50:04 51°13.418 2°51.313 16.539 2.196005 14.880201 -1.383633
2010-03-30 07:50:09 51°13.417 2°51.31 16.5386 2.196005 14.880201 -1.383633
2010-03-30 07:50:13 51°13.417 2°51.308 16.5467 2.196109 14.881514 -1.383633
2010-03-30 07:50:19 51°13.417 2°51.304 16.5414 2.196212 14.882826 -1.383633
2010-03-30 07:50:24 51°13.416 2°51.301 16.5437 2.196212 14.882826 -1.383633
2010-03-30 07:50:29 51°13.416 2°51.298 16.5407 2.196005 14.88157 -1.383633
2010-03-30 07:50:34 51°13.416 2°51.295 16.5507 2.196005 14.881296 -1.383633
2010-03-30 07:50:39 51°13.415 2°51.291 16.5265 2.196005 14.881296 -1.383633
2010-03-30 07:50:44 51°13.415 2°51.288 16.541 2.196109 14.881788 -1.383633
2010-03-30 07:50:49 51°13.415 2°51.285 16.5522 2.196005 14.88157 -1.383633
2010-03-30 07:50:54 51°13.414 2°51.282 16.5414 2.196005 14.882118 -1.383633
2010-03-30 07:50:59 51°13.414 2°51.279 16.557 2.195902 14.881627 -1.383633
2010-03-30 07:51:04 51°13.414 2°51.276 16.5624 2.195799 14.881136 -1.383633
2010-03-30 07:51:09 51°13.413 2°51.272 16.5667 2.195799 14.881136 -1.383633
2010-03-30 07:51:14 51°13.413 2°51.269 16.5532 2.195695 14.881466 -1.383633
2010-03-30 07:51:19 51°13.413 2°51.266 16.5597 2.195902 14.882722 -1.383633
2010-03-30 07:51:24 51°13.413 2°51.263 16.5572 2.195695 14.881466 -1.383633
2010-03-30 07:51:29 51°13.413 2°51.26 16.5666 2.195799 14.881957 -1.383633
2010-03-30 07:51:34 51°13.412 2°51.257 16.5719 2.195799 14.882505 -1.383633
2010-03-30 07:51:39 51°13.412 2°51.253 16.5616 2.195799 14.882505 -1.383633
2010-03-30 07:51:44 51°13.412 2°51.25 16.5731 2.195592 14.880975 -1.383633
2010-03-30 07:51:49 51°13.412 2°51.247 16.5538 2.195695 14.882288 -1.383633
2010-03-30 07:51:54 51°13.412 2°51.244 16.5431 2.195592 14.881523 -1.383633
2010-03-30 07:51:59 51°13.411 2°51.241 16.5426 2.195592 14.880975 -1.383633
2010-03-30 07:52:04 51°13.411 2°51.238 16.5648 2.195489 14.88021 -1.383633
2010-03-30 07:52:09 51°13.411 2°51.235 16.5761 2.195489 14.88021 -1.383633
2010-03-30 07:52:14 51°13.411 2°51.232 16.569 2.195386 14.879993 -1.383633
2010-03-30 07:52:19 51°13.411 2°51.229 16.5768 2.195386 14.880267 -1.383633
2010-03-30 07:52:24 51°13.411 2°51.226 16.5609 2.195282 14.879776 -1.383633
2010-03-30 07:52:29 51°13.411 2°51.223 16.5931 2.195179 14.879011 -1.383633
2010-03-30 07:52:34 51°13.411 2°51.22 16.5855 2.195386 14.881362 -1.383633
2010-03-30 07:52:39 51°13.41 2°51.218 16.5977 2.195386 14.881362 -1.383633
2010-03-30 07:52:44 51°13.41 2°51.215 16.5979 2.195386 14.882458 -1.383633
2010-03-30 07:52:49 51°13.41 2°51.212 16.5941 2.195282 14.881693 -1.383633
2010-03-30 07:52:54 51°13.41 2°51.209 16.5914 2.195282 14.881419 -1.383633
2010-03-30 07:52:59 51°13.41 2°51.206 16.6011 2.195282 14.881419 -1.383633
2010-03-30 07:53:04 51°13.41 2°51.203 16.5817 2.195282 14.881419 -1.383633
2010-03-30 07:53:09 51°13.41 2°51.201 16.6067 2.195282 14.881419 -1.383633
2010-03-30 07:53:14 51°13.41 2°51.198 16.5842 2.195179 14.880928 -1.383633
2010-03-30 07:53:19 51°13.41 2°51.196 16.6051 2.194972 14.87885 -1.383633
2010-03-30 07:53:24 51°13.41 2°51.193 16.5949 2.194972 14.879671 -1.383633
2010-03-30 07:53:29 51°13.41 2°51.191 16.6015 2.194972 14.879124 -1.383633
2010-03-30 07:53:34 51°13.41 2°51.188 16.587 2.194869 14.878632 -1.383633
2010-03-30 07:53:39 51°13.41 2°51.186 16.5889 2.194869 14.878632 -1.383633
2010-03-30 07:53:44 51°13.409 2°51.183 16.6015 2.194869 14.878359 -1.383633
2010-03-30 07:53:49 51°13.409 2°51.181 16.6039 2.194766 14.877867 -1.383633
2010-03-30 07:53:54 51°13.409 2°51.178 16.6069 2.194559 14.876885 -1.383633
2010-03-30 07:53:59 51°13.409 2°51.176 16.6161 2.194662 14.87765 -1.383633
2010-03-30 07:54:04 51°13.408 2°51.174 16.6205 2.194456 14.876941 -1.383633
2010-03-30 07:54:09 51°13.408 2°51.171 16.6041 2.194456 14.876941 -1.383633
2010-03-30 07:54:14 51°13.408 2°51.169 16.611 2.194766 14.878963 -1.383633
2010-03-30 07:54:19 51°13.408 2°51.167 16.5977 2.194766 14.879511 -1.383633
2010-03-30 07:54:24 51°13.407 2°51.164 16.608 2.194559 14.87798 -1.383633
2010-03-30 07:54:29 51°13.407 2°51.162 16.602 2.194456 14.877489 -1.383633
2010-03-30 07:54:34 51°13.407 2°51.16 16.6233 2.194456 14.877489 -1.383633
2010-03-30 07:54:39 51°13.406 2°51.157 16.6213 2.194456 14.877489 -1.383633
2010-03-30 07:54:44 51°13.406 2°51.155 16.6226 2.194456 14.877763 -1.383633
2010-03-30 07:54:49 51°13.406 2°51.153 16.6293 2.194352 14.87782 -1.383633
2010-03-30 07:54:54 51°13.405 2°51.15 16.6277 2.194456 14.879133 -1.383633
2010-03-30 07:54:59 51°13.405 2°51.148 16.629 2.194353 14.879189 -1.383633
2010-03-30 07:55:04 51°13.404 2°51.146 16.6222 2.194456 14.879681 -1.383633
2010-03-30 07:55:09 51°13.404 2°51.143 16.6298 2.194456 14.879681 -1.383633
2010-03-30 07:55:14 51°13.403 2°51.141 16.6354 2.194352 14.878915 -1.383633
2010-03-30 07:55:19 51°13.403 2°51.139 16.6279 2.194353 14.879189 -1.383633
2010-03-30 07:55:24 51°13.402 2°51.137 16.6318 2.194249 14.87815 -1.383633
2010-03-30 07:55:29 51°13.402 2°51.134 16.6349 2.194146 14.877659 -1.383633
2010-03-30 07:55:34 51°13.401 2°51.132 16.6411 2.194146 14.877933 -1.383633
2010-03-30 07:55:39 51°13.401 2°51.13 16.6392 2.194146 14.877933 -1.383633
2010-03-30 07:55:44 51°13.4 2°51.127 16.6301 2.194146 14.878481 -1.383633
2010-03-30 07:55:49 51°13.4 2°51.125 16.6329 2.194146 14.878481 -1.383633
2010-03-30 07:55:54 51°13.399 2°51.123 16.6343 2.194043 14.877441 -1.383633
2010-03-30 07:55:59 51°13.399 2°51.12 16.6414 2.194043 14.878263 -1.383633
2010-03-30 07:56:04 51°13.398 2°51.118 16.6555 2.193836 14.877281 -1.383633
2010-03-30 07:56:09 51°13.398 2°51.116 16.6465 2.193836 14.877281 -1.383633
2010-03-30 07:56:14 51°13.398 2°51.113 16.6477 2.194043 14.879359 -1.383633
2010-03-30 07:56:19 51°13.397 2°51.111 16.6509 2.193939 14.878594 -1.383633
2010-03-30 07:56:24 51°13.397 2°51.108 16.6541 2.194043 14.879359 -1.383633
2010-03-30 07:56:29 51°13.396 2°51.106 16.6636 2.193836 14.878377 -1.383633
2010-03-30 07:56:34 51°13.396 2°51.104 16.664 2.193939 14.879416 -1.383633
2010-03-30 07:56:39 51°13.395 2°51.101 16.6431 2.193939 14.879416 -1.383633
2010-03-30 07:56:44 51°13.395 2°51.099 16.6686 2.193939 14.879416 -1.383633
2010-03-30 07:56:49 51°13.395 2°51.096 16.659 2.193733 14.878159 -1.383633
2010-03-30 07:56:54 51°13.394 2°51.094 16.6674 2.193836 14.878925 -1.383633
2010-03-30 07:56:59 51°13.394 2°51.092 16.6395 2.193836 14.879199 -1.383633
2010-03-30 07:57:04 51°13.393 2°51.089 16.6696 2.193629 14.877394 -1.383633
2010-03-30 07:57:09 51°13.393 2°51.087 16.6649 2.193629 14.877394 -1.383633
2010-03-30 07:57:14 51°13.392 2°51.085 16.6679 2.193733 14.878707 -1.383633
2010-03-30 07:57:19 51°13.392 2°51.082 16.6749 2.193733 14.879256 -1.383633
2010-03-30 07:57:24 51°13.391 2°51.08 16.6692 2.193836 14.880295 -1.383633
2010-03-30 07:57:29 51°13.391 2°51.078 16.6744 2.193629 14.879038 -1.383633
2010-03-30 07:57:34 51°13.39 2°51.075 16.6818 2.193526 14.878547 -1.418457
2010-03-30 07:57:39 51°13.39 2°51.073 16.6711 2.193526 14.878547 -1.418457
2010-03-30 07:57:44 51°13.389 2°51.07 16.6842 2.193733 14.880352 -1.383633
2010-03-30 07:57:49 51°13.389 2°51.068 16.682 2.193526 14.878821 -1.383633
2010-03-30 07:57:54 51°13.388 2°51.066 16.6818 2.193629 14.879861 -1.383633
2010-03-30 07:57:59 51°13.388 2°51.063 16.6833 2.193526 14.879643 -1.383633
2010-03-30 07:58:04 51°13.387 2°51.061 16.6842 2.193629 14.880409 -1.383633
2010-03-30 07:58:09 51°13.387 2°51.059 16.6857 2.193629 14.880409 -1.383633
2010-03-30 07:58:14 51°13.386 2°51.056 16.6739 2.193423 14.879152 -1.383633
2010-03-30 07:58:19 51°13.386 2°51.054 16.6835 2.193423 14.879152 -1.383633
2010-03-30 07:58:24 51°13.386 2°51.052 16.6761 2.193423 14.879426 -1.418457
2010-03-30 07:58:29 51°13.385 2°51.049 16.6796 2.193319 14.878386 -1.383633
2010-03-30 07:58:34 51°13.385 2°51.047 16.679 2.193216 14.877895 -1.383633
2010-03-30 07:58:39 51°13.384 2°51.045 16.6824 2.193216 14.877895 -1.383633
2010-03-30 07:58:44 51°13.384 2°51.042 16.6988 2.193319 14.87866 -1.418457
2010-03-30 07:58:49 51°13.383 2°51.04 16.6906 2.193113 14.877677 -1.383633
2010-03-30 07:58:54 51°13.383 2°51.038 16.6868 2.19301 14.877186 -1.418457
2010-03-30 07:58:59 51°13.383 2°51.035 16.6962 2.193216 14.878717 -1.383633
2010-03-30 07:59:04 51°13.382 2°51.033 16.6951 2.193113 14.877951 -1.383633
2010-03-30 07:59:09 51°13.382 2°51.03 16.6976 2.193113 14.877951 -1.383633
2010-03-30 07:59:14 51°13.381 2°51.028 16.6964 2.19301 14.87746 -1.383633
2010-03-30 07:59:19 51°13.381 2°51.026 16.6925 2.19301 14.87746 -1.383633
2010-03-30 07:59:24 51°13.38 2°51.024 16.7122 2.192906 14.876968 -1.383633
2010-03-30 07:59:29 51°13.38 2°51.021 16.7093 2.19301 14.877734 -1.383633
2010-03-30 07:59:34 51°13.38 2°51.019 16.7046 2.19301 14.878557 -1.418457
2010-03-30 07:59:39 51°13.379 2°51.017 16.7184 2.19301 14.878557 -1.418457
2010-03-30 07:59:44 51°13.378 2°51.014 16.7339 2.1927 14.877082 -1.383633
2010-03-30 07:59:49 51°13.378 2°51.012 16.7199 2.19301 14.882396 -1.383633
2010-03-30 07:59:54 51°13.378 2°51.01 16.7126 2.193216 14.883928 -1.383633
2010-03-30 07:59:59 51°13.377 2°51.008 16.7041 2.193216 14.883379 -1.383633
2010-03-30 08:00:04 51°13.377 2°51.005 16.6977 2.193113 14.883436 -1.383633
2010-03-30 08:00:09 51°13.376 2°51.003 16.695 2.193113 14.883436 -1.383633
2010-03-30 08:00:14 51°13.376 2°51.001 16.6895 2.19301 14.882396 -1.383633
2010-03-30 08:00:19 51°13.375 2°50.999 16.6916 2.193113 14.883711 -1.383633
2010-03-30 08:00:24 51°13.375 2°50.997 16.697 2.19301 14.882945 -1.383633
2010-03-30 08:00:29 51°13.375 2°50.995 16.6997 2.19301 14.882396 -1.383633
2010-03-30 08:00:34 51°13.374 2°50.993 16.705 2.192906 14.880533 -1.383633
2010-03-30 08:00:39 51°13.374 2°50.99 16.7072 2.192906 14.880533 -1.383633
2010-03-30 08:00:44 51°13.374 2°50.988 16.7088 2.192596 14.877139 -1.383633
2010-03-30 08:00:49 51°13.373 2°50.986 16.7113 2.19208 14.872488 -1.383633
2010-03-30 08:00:54 51°13.373 2°50.984 16.7123 2.19239 14.875333 -1.383633
2010-03-30 08:00:59 51°13.373 2°50.982 16.7096 2.19239 14.87643 -1.383633
2010-03-30 08:01:04 51°13.372 2°50.979 16.713 2.192286 14.876761 -1.383633
2010-03-30 08:01:09 51°13.372 2°50.977 16.7144 2.192286 14.876761 -1.383633
2010-03-30 08:01:14 51°13.371 2°50.975 16.7152 2.192493 14.878841 -1.383633
2010-03-30 08:01:19 51°13.371 2°50.973 16.7152 2.192493 14.879115 -1.383633
2010-03-30 08:01:24 51°13.371 2°50.971 16.716 2.19239 14.878075 -1.383633
2010-03-30 08:01:29 51°13.37 2°50.968 16.7184 2.19239 14.878075 -1.383633
2010-03-30 08:01:34 51°13.37 2°50.965 16.7208 2.19239 14.878349 -1.383633
2010-03-30 08:01:39 51°13.37 2°50.963 16.7249 2.19239 14.878349 -1.383633
2010-03-30 08:01:44 51°13.369 2°50.961 16.7222 2.192286 14.877858 -1.383633
2010-03-30 08:01:49 51°13.369 2°50.959 16.7251 2.192286 14.878406 -1.418457
2010-03-30 08:01:54 51°13.368 2°50.957 16.7271 2.192183 14.878189 -1.383633
2010-03-30 08:01:59 51°13.368 2°50.954 16.7293 2.192286 14.879229 -1.383633
2010-03-30 08:02:04 51°13.368 2°50.952 16.7264 2.192183 14.878463 -1.383633
2010-03-30 08:02:09 51°13.367 2°50.949 16.7311 2.192183 14.878463 -1.383633
2010-03-30 08:02:14 51°13.366 2°50.947 16.7324 2.19208 14.877697 -1.383633
2010-03-30 08:02:19 51°13.366 2°50.945 16.7342 2.192183 14.878463 -1.383633
2010-03-30 08:02:24 51°13.365 2°50.942 16.7328 2.19208 14.877972 -1.383633
2010-03-30 08:02:29 51°13.365 2°50.94 16.736 2.19208 14.877972 -1.383633
2010-03-30 08:02:34 51°13.365 2°50.938 16.7382 2.191977 14.877754 -1.418457
2010-03-30 08:02:39 51°13.364 2°50.936 16.7371 2.191977 14.877754 -1.418457
2010-03-30 08:02:44 51°13.364 2°50.933 16.7409 2.191977 14.878028 -1.383633
2010-03-30 08:02:49 51°13.363 2°50.931 16.744 2.191873 14.877811 -1.418457
2010-03-30 08:02:54 51°13.363 2°50.929 16.7432 2.191977 14.878851 -1.383633
2010-03-30 08:02:59 51°13.362 2°50.927 16.7412 2.191977 14.879126 -1.383633
2010-03-30 08:03:04 51°13.362 2°50.924 16.7427 2.191873 14.878085 -1.383633
2010-03-30 08:03:09 51°13.361 2°50.922 16.7396 2.191873 14.878085 -1.383633
2010-03-30 08:03:14 51°13.361 2°50.92 16.7489 2.191873 14.878085 -1.418457
2010-03-30 08:03:19 51°13.36 2°50.918 16.745 2.191667 14.876828 -1.418457
2010-03-30 08:03:24 51°13.36 2°50.915 16.7534 2.191667 14.876828 -1.383633
2010-03-30 08:03:29 51°13.359 2°50.913 16.7542 2.191667 14.877376 -1.383633
2010-03-30 08:03:34 51°13.359 2°50.911 16.7531 2.19177 14.878691 -1.418457
2010-03-30 08:03:39 51°13.359 2°50.909 16.7524 2.19177 14.878691 -1.418457
2010-03-30 08:03:44 51°13.358 2°50.907 16.7581 2.191667 14.877925 -1.383633
2010-03-30 08:03:49 51°13.358 2°50.905 16.7483 2.191667 14.878199 -1.418457
2010-03-30 08:03:54 51°13.357 2°50.903 16.7529 2.191563 14.877433 -1.383633
2010-03-30 08:03:59 51°13.356 2°50.901 16.7591 2.191563 14.877708 -1.383633
2010-03-30 08:04:04 51°13.356 2°50.898 16.7599 2.19146 14.87749 -1.418457
2010-03-30 08:04:09 51°13.356 2°50.896 16.7635 2.19146 14.87749 -1.418457
2010-03-30 08:04:14 51°13.356 2°50.894 16.7613 2.19146 14.87749 -1.383633
2010-03-30 08:04:19 51°13.355 2°50.892 16.769 2.191357 14.876998 -1.418457
2010-03-30 08:04:24 51°13.355 2°50.889 16.7653 2.19146 14.878313 -1.383633
2010-03-30 08:04:29 51°13.354 2°50.887 16.7721 2.191253 14.87733 -1.383633
2010-03-30 08:04:34 51°13.354 2°50.885 16.7716 2.191563 14.880178 -1.383633
2010-03-30 08:04:39 51°13.354 2°50.883 16.7648 2.191563 14.880178 -1.383633
2010-03-30 08:04:44 51°13.353 2°50.881 16.7604 2.19146 14.879411 -1.383633
2010-03-30 08:04:49 51°13.353 2°50.879 16.7551 2.191357 14.878096 -1.418457
2010-03-30 08:04:54 51°13.353 2°50.876 16.7683 2.19115 14.876564 -1.383633
2010-03-30 08:04:59 51°13.352 2°50.874 16.7788 2.19115 14.876838 -1.383633
2010-03-30 08:05:04 51°13.352 2°50.872 16.7673 2.191253 14.877879 -1.383633
2010-03-30 08:05:09 51°13.351 2°50.87 16.7775 2.191253 14.877879 -1.383633
2010-03-30 08:05:14 51°13.351 2°50.868 16.7705 2.19115 14.877661 -1.383633
2010-03-30 08:05:19 51°13.351 2°50.866 16.7791 2.191047 14.876895 -1.383633
2010-03-30 08:05:24 51°13.35 2°50.864 16.7784 2.191047 14.87717 -1.383633
2010-03-30 08:05:29 51°13.35 2°50.861 16.7854 2.190944 14.876678 -1.418457
2010-03-30 08:05:34 51°13.349 2°50.859 16.7887 2.190944 14.876952 -1.383633
2010-03-30 08:05:39 51°13.349 2°50.857 16.7864 2.190944 14.876952 -1.383633
2010-03-30 08:05:44 51°13.349 2°50.855 16.788 2.191047 14.878267 -1.383633
2010-03-30 08:05:49 51°13.348 2°50.853 16.79 2.190944 14.877776 -1.383633
2010-03-30 08:05:54 51°13.348 2°50.851 16.7906 2.190944 14.878325 -1.383633
2010-03-30 08:05:59 51°13.347 2°50.849 16.7915 2.190944 14.878599 -1.383633
2010-03-30 08:06:04 51°13.347 2°50.847 16.7904 2.190944 14.879148 -1.383633
2010-03-30 08:06:09 51°13.347 2°50.845 16.7946 2.190944 14.879148 -1.383633
2010-03-30 08:06:14 51°13.346 2°50.843 16.7876 2.19084 14.878107 -1.383633
2010-03-30 08:06:19 51°13.346 2°50.841 16.8035 2.190737 14.877615 -1.383633
2010-03-30 08:06:24 51°13.346 2°50.838 16.8056 2.190634 14.877398 -1.383633
2010-03-30 08:06:29 51°13.345 2°50.836 16.8112 2.190634 14.878496 -1.383633
2010-03-30 08:06:34 51°13.345 2°50.834 16.8112 2.190737 14.879812 -1.418457
2010-03-30 08:06:39 51°13.344 2°50.831 16.8126 2.190737 14.879812 -1.418457
2010-03-30 08:06:44 51°13.343 2°50.827 16.8127 2.190737 14.879812 -1.383633
2010-03-30 08:06:49 51°13.342 2°50.823 16.8138 2.190634 14.879045 -1.418457
2010-03-30 08:06:54 51°13.341 2°50.819 16.8157 2.190634 14.879045 -1.383633
2010-03-30 08:06:59 51°13.34 2°50.814 16.8133 2.19053 14.878004 -1.383633
2010-03-30 08:07:04 51°13.338 2°50.81 16.8154 2.190427 14.877238 -1.383633
2010-03-30 08:07:09 51°13.337 2°50.805 16.8178 2.190427 14.877238 -1.383633
2010-03-30 08:07:14 51°13.335 2°50.799 16.8193 2.190427 14.877512 -1.418457
2010-03-30 08:07:19 51°13.332 2°50.794 16.8182 2.190324 14.876746 -1.383633
2010-03-30 08:07:24 51°13.329 2°50.79 16.8213 2.190324 14.87702 -1.383633
2010-03-30 08:07:29 51°13.326 2°50.785 16.8224 2.19022 14.876528 -1.383633
2010-03-30 08:07:34 51°13.323 2°50.78 16.8239 2.19022 14.877077 -1.418457
2010-03-30 08:07:39 51°13.32 2°50.776 16.8222 2.19022 14.877077 -1.418457
2010-03-30 08:07:44 51°13.316 2°50.772 16.8224 2.190117 14.876585 -1.383633
2010-03-30 08:07:49 51°13.312 2°50.768 16.8232 2.190117 14.876585 -1.383633
2010-03-30 08:07:54 51°13.307 2°50.764 16.8285 2.190014 14.876093 -1.418457
2010-03-30 08:07:59 51°13.303 2°50.762 16.8273 2.190014 14.876093 -1.383633
2010-03-30 08:08:04 51°13.298 2°50.759 16.8249 2.190014 14.876368 -1.418457
2010-03-30 08:08:09 51°13.293 2°50.757 16.8251 2.190014 14.876368 -1.418457
2010-03-30 08:08:14 51°13.288 2°50.757 16.8298 2.18991 14.875876 -1.383633
2010-03-30 08:08:19 51°13.283 2°50.756 16.8284 2.18991 14.875876 -1.383633
2010-03-30 08:08:24 51°13.278 2°50.756 16.8298 2.189807 14.875658 -1.383633
2010-03-30 08:08:29 51°13.273 2°50.756 16.8312 2.189807 14.875658 -1.383633
2010-03-30 08:08:34 51°13.268 2°50.757 16.8356 2.189807 14.875933 -1.383633
2010-03-30 08:08:39 51°13.263 2°50.759 16.8319 2.189807 14.875933 -1.383633
2010-03-30 08:08:44 51°13.258 2°50.762 16.8336 2.189807 14.876208 -1.418457
2010-03-30 08:08:49 51°13.254 2°50.765 16.8357 2.189704 14.875716 -1.418457
2010-03-30 08:08:54 51°13.25 2°50.768 16.8386 2.189704 14.87599 -1.418457
2010-03-30 08:08:59 51°13.246 2°50.772 16.8348 2.189601 14.875498 -1.418457
2010-03-30 08:09:04 51°13.243 2°50.776 16.837 2.189601 14.875773 -1.418457
2010-03-30 08:09:09 51°13.24 2°50.781 16.8452 2.189601 14.875773 -1.418457
2010-03-30 08:09:14 51°13.238 2°50.786 16.8396 2.189601 14.876322 -1.418457
2010-03-30 08:09:19 51°13.236 2°50.792 16.844 2.189497 14.875555 -1.418457
2010-03-30 08:09:24 51°13.235 2°50.797 16.8449 2.189497 14.87583 -1.418457
2010-03-30 08:09:29 51°13.235 2°50.802 16.8434 2.189394 14.875338 -1.418457
2010-03-30 08:09:34 51°13.236 2°50.807 16.8469 2.189394 14.875338 -1.418457
2010-03-30 08:09:39 51°13.237 2°50.811 16.8416 2.189394 14.875338 -1.418457
2010-03-30 08:09:44 51°13.239 2°50.816 16.8491 2.189394 14.875338 -1.383633
2010-03-30 08:09:49 51°13.241 2°50.82 16.8484 2.189291 14.874846 -1.418457
2010-03-30 08:09:54 51°13.243 2°50.823 16.8478 2.189084 14.873037 -1.383633
2010-03-30 08:09:59 51°13.247 2°50.827 16.8298 2.188981 14.872271 -1.383633
2010-03-30 08:10:04 51°13.251 2°50.83 16.8356 2.188361 14.867396 -1.418457
2010-03-30 08:10:09 51°13.254 2°50.833 16.8364 2.188361 14.867396 -1.418457
2010-03-30 08:10:14 51°13.259 2°50.837 16.8188 2.188774 14.870188 -1.418457
2010-03-30 08:10:19 51°13.263 2°50.841 16.8237 2.188257 14.865531 -1.418457
2010-03-30 08:10:24 51°13.268 2°50.846 16.8092 2.186914 14.855565 -1.383633
2010-03-30 08:10:29 51°13.273 2°50.851 16.7915 2.186708 14.854032 -1.383633
2010-03-30 08:10:34 51°13.277 2°50.857 16.7758 2.187638 14.861206 -1.383633
2010-03-30 08:10:39 51°13.282 2°50.863 16.7877 2.187638 14.861206 -1.383633
2010-03-30 08:10:44 51°13.286 2°50.869 16.7843 2.188567 14.868929 -1.383633